Wetterdaten: Mittwoch, 11.02.2026
Datum Zeit Temp. Aussen Temp. o. S. Temp +5cm Feuchte Auss Luftdruck Regen Sonnenschein Regendauer Solar Windböen Empfang
11.02.2026 00:00 7,6 °C 6,7 °C 3,3 °C 97 % 985,6 hPa 0,2 l/m² 0 min 2 min 0 W/m² 0,0 km/h (0 Bft) 97,87 %
11.02.2026 00:02 7,6 °C 6,7 °C 3,3 °C 97 % 985,5 hPa 0,0 l/m² 0 min 0 min 0 W/m² 6,4 km/h (2 Bft) 100,00 %
11.02.2026 00:04 7,6 °C 6,7 °C 3,3 °C 97 % 985,5 hPa 0,0 l/m² 0 min 0 min 0 W/m² 12,9 km/h (3 Bft) 100,00 %
11.02.2026 00:07 7,6 °C 6,7 °C 3,3 °C 97 % 985,5 hPa 0,0 l/m² 0 min 0 min 0 W/m² 12,9 km/h (3 Bft) 98,68 %
11.02.2026 00:08 7,6 °C 6,7 °C 3,3 °C 97 % 985,5 hPa 0,0 l/m² 0 min 0 min 0 W/m² 3,2 km/h (1 Bft) 100,00 %
11.02.2026 00:10 7,6 °C 6,7 °C 3,3 °C 97 % 985,4 hPa 0,0 l/m² 0 min 0 min 0 W/m² 6,4 km/h (2 Bft) 100,00 %
11.02.2026 00:12 7,6 °C 6,7 °C 3,3 °C 97 % 985,5 hPa 0,0 l/m² 0 min 0 min 0 W/m² 12,9 km/h (3 Bft) 100,00 %
11.02.2026 00:14 7,6 °C 6,7 °C 3,3 °C 97 % 985,4 hPa 0,0 l/m² 0 min 0 min 0 W/m² 12,9 km/h (3 Bft) 100,00 %
11.02.2026 00:16 7,6 °C 6,7 °C 3,3 °C 97 % 985,4 hPa 0,0 l/m² 0 min 0 min 0 W/m² 12,9 km/h (3 Bft) 100,00 %
11.02.2026 00:18 7,6 °C 6,7 °C 3,3 °C 97 % 985,3 hPa 0,0 l/m² 0 min 0 min 0 W/m² 12,9 km/h (3 Bft) 97,87 %
11.02.2026 00:20 7,6 °C 6,7 °C 3,3 °C 97 % 985,3 hPa 0,0 l/m² 0 min 0 min 0 W/m² 6,4 km/h (2 Bft) 100,00 %
11.02.2026 00:22 7,6 °C 6,7 °C 3,3 °C 97 % 985,3 hPa 0,0 l/m² 0 min 0 min 0 W/m² 16,1 km/h (3 Bft) 100,00 %
11.02.2026 00:24 7,6 °C 6,7 °C 3,3 °C 97 % 985,3 hPa 0,0 l/m² 0 min 0 min 0 W/m² 6,4 km/h (2 Bft) 100,00 %
11.02.2026 00:26 7,6 °C 6,7 °C 3,3 °C 97 % 985,2 hPa 0,0 l/m² 0 min 0 min 0 W/m² 12,9 km/h (3 Bft) 100,00 %
11.02.2026 00:28 7,6 °C 6,7 °C 3,3 °C 97 % 985,1 hPa 0,0 l/m² 0 min 0 min 0 W/m² 12,9 km/h (3 Bft) 95,74 %
11.02.2026 00:30 7,6 °C 6,7 °C 3,3 °C 97 % 985,2 hPa 0,0 l/m² 0 min 0 min 0 W/m² 6,4 km/h (2 Bft) 100,00 %
11.02.2026 00:32 7,6 °C 6,7 °C 3,3 °C 98 % 985,2 hPa 0,0 l/m² 0 min 0 min 0 W/m² 6,4 km/h (2 Bft) 100,00 %
11.02.2026 00:34 7,6 °C 6,7 °C 3,3 °C 98 % 985,2 hPa 0,0 l/m² 0 min 0 min 0 W/m² 12,9 km/h (3 Bft) 100,00 %
11.02.2026 00:36 7,6 °C 6,7 °C 3,3 °C 98 % 985,1 hPa 0,0 l/m² 0 min 0 min 0 W/m² 9,7 km/h (2 Bft) 100,00 %
11.02.2026 00:38 7,6 °C 6,7 °C 3,3 °C 98 % 985,1 hPa 0,0 l/m² 0 min 0 min 0 W/m² 6,4 km/h (2 Bft) 100,00 %
11.02.2026 00:40 7,6 °C 6,7 °C 3,3 °C 98 % 985,1 hPa 0,0 l/m² 0 min 0 min 0 W/m² 6,4 km/h (2 Bft) 100,00 %
11.02.2026 00:42 7,6 °C 6,7 °C 3,3 °C 98 % 985,0 hPa 0,0 l/m² 0 min 0 min 0 W/m² 12,9 km/h (3 Bft) 100,00 %
11.02.2026 00:44 7,6 °C 6,7 °C 3,3 °C 98 % 985,0 hPa 0,0 l/m² 0 min 0 min 0 W/m² 12,9 km/h (3 Bft) 97,87 %
11.02.2026 00:46 7,6 °C 6,7 °C 3,3 °C 98 % 985,0 hPa 0,0 l/m² 0 min 0 min 0 W/m² 12,9 km/h (3 Bft) 95,74 %
11.02.2026 00:48 7,6 °C 6,7 °C 3,3 °C 98 % 985,0 hPa 0,0 l/m² 0 min 0 min 0 W/m² 12,9 km/h (3 Bft) 95,74 %
11.02.2026 00:50 7,6 °C 6,7 °C 3,3 °C 98 % 985,0 hPa 0,0 l/m² 0 min 0 min 0 W/m² 3,2 km/h (1 Bft) 97,87 %
11.02.2026 00:52 7,6 °C 6,7 °C 3,3 °C 98 % 984,9 hPa 0,0 l/m² 0 min 0 min 0 W/m² 6,4 km/h (2 Bft) 97,87 %
11.02.2026 00:54 7,6 °C 6,7 °C 3,3 °C 98 % 984,9 hPa 0,0 l/m² 0 min 0 min 0 W/m² 6,4 km/h (2 Bft) 95,74 %
11.02.2026 00:56 7,6 °C 6,7 °C 3,3 °C 98 % 984,9 hPa 0,0 l/m² 0 min 0 min 0 W/m² 3,2 km/h (1 Bft) 95,74 %
11.02.2026 00:58 7,6 °C 6,7 °C 3,3 °C 98 % 984,8 hPa 0,0 l/m² 0 min 0 min 0 W/m² 6,4 km/h (2 Bft) 95,74 %
11.02.2026 01:00 7,6 °C 6,7 °C 3,3 °C 98 % 984,7 hPa 0,0 l/m² 0 min 0 min 0 W/m² 6,4 km/h (2 Bft) 97,87 %
11.02.2026 01:02 7,6 °C 6,7 °C 3,3 °C 98 % 984,7 hPa 0,0 l/m² 0 min 0 min 0 W/m² 6,4 km/h (2 Bft) 91,49 %
11.02.2026 01:04 7,6 °C 6,7 °C 3,3 °C 98 % 984,7 hPa 0,0 l/m² 0 min 0 min 0 W/m² 12,9 km/h (3 Bft) 97,87 %
11.02.2026 01:06 7,6 °C 6,7 °C 3,3 °C 98 % 984,7 hPa 0,0 l/m² 0 min 0 min 0 W/m² 6,4 km/h (2 Bft) 91,49 %
11.02.2026 01:08 7,6 °C 6,7 °C 3,3 °C 98 % 984,6 hPa 0,0 l/m² 0 min 0 min 0 W/m² 19,3 km/h (3 Bft) 93,62 %
11.02.2026 01:10 7,6 °C 6,7 °C 3,3 °C 98 % 984,6 hPa 0,0 l/m² 0 min 0 min 0 W/m² 16,1 km/h (3 Bft) 93,62 %
11.02.2026 01:12 7,6 °C 6,7 °C 3,3 °C 98 % 984,6 hPa 0,0 l/m² 0 min 0 min 0 W/m² 12,9 km/h (3 Bft) 91,49 %
11.02.2026 01:14 7,6 °C 6,7 °C 3,3 °C 98 % 984,5 hPa 0,0 l/m² 0 min 0 min 0 W/m² 6,4 km/h (2 Bft) 91,49 %
11.02.2026 01:16 7,6 °C 6,7 °C 3,3 °C 98 % 984,6 hPa 0,0 l/m² 0 min 0 min 0 W/m² 6,4 km/h (2 Bft) 97,87 %
11.02.2026 01:18 7,6 °C 7,2 °C 3,3 °C 98 % 984,5 hPa 0,0 l/m² 0 min 0 min 0 W/m² 6,4 km/h (2 Bft) 95,74 %
11.02.2026 01:20 7,6 °C 7,2 °C 3,3 °C 98 % 984,5 hPa 0,0 l/m² 0 min 0 min 0 W/m² 12,9 km/h (3 Bft) 95,74 %
11.02.2026 01:22 7,7 °C 7,2 °C 3,3 °C 98 % 984,5 hPa 0,0 l/m² 0 min 0 min 0 W/m² 9,7 km/h (2 Bft) 94,00 %
11.02.2026 01:24 7,7 °C 7,2 °C 3,3 °C 98 % 984,4 hPa 0,0 l/m² 0 min 0 min 0 W/m² 12,9 km/h (3 Bft) 95,74 %
11.02.2026 01:26 7,7 °C 7,2 °C 3,3 °C 98 % 984,4 hPa 0,0 l/m² 0 min 0 min 0 W/m² 6,4 km/h (2 Bft) 95,65 %
11.02.2026 01:28 7,7 °C 7,2 °C 3,3 °C 98 % 984,3 hPa 0,0 l/m² 0 min 0 min 0 W/m² 9,7 km/h (2 Bft) 95,74 %
11.02.2026 01:30 7,7 °C 7,2 °C 3,3 °C 98 % 984,3 hPa 0,0 l/m² 0 min 2 min 0 W/m² 12,9 km/h (3 Bft) 93,62 %
11.02.2026 01:32 7,7 °C 7,2 °C 3,3 °C 98 % 984,3 hPa 0,0 l/m² 0 min 2 min 0 W/m² 6,4 km/h (2 Bft) 95,74 %
11.02.2026 01:34 7,7 °C 7,2 °C 3,3 °C 98 % 984,3 hPa 0,0 l/m² 0 min 2 min 0 W/m² 6,4 km/h (2 Bft) 95,74 %
11.02.2026 01:36 7,7 °C 7,2 °C 3,3 °C 98 % 984,2 hPa 0,0 l/m² 0 min 2 min 0 W/m² 6,4 km/h (2 Bft) 95,74 %
11.02.2026 01:38 7,7 °C 7,2 °C 3,3 °C 98 % 984,2 hPa 0,0 l/m² 0 min 0 min 0 W/m² 6,4 km/h (2 Bft) 93,62 %
11.02.2026 01:40 7,7 °C 7,2 °C 3,3 °C 98 % 984,2 hPa 0,0 l/m² 0 min 0 min 0 W/m² 12,9 km/h (3 Bft) 95,74 %
11.02.2026 01:42 7,7 °C 7,2 °C 3,3 °C 98 % 984,1 hPa 0,0 l/m² 0 min 0 min 0 W/m² 6,4 km/h (2 Bft) 95,74 %
11.02.2026 01:44 7,8 °C 7,2 °C 3,3 °C 98 % 984,1 hPa 0,0 l/m² 0 min 0 min 0 W/m² 6,4 km/h (2 Bft) 95,74 %
11.02.2026 01:46 7,8 °C 7,2 °C 3,3 °C 98 % 984,1 hPa 0,0 l/m² 0 min 0 min 0 W/m² 12,9 km/h (3 Bft) 95,65 %
11.02.2026 01:48 7,8 °C 7,2 °C 3,3 °C 98 % 984,1 hPa 0,0 l/m² 0 min 0 min 0 W/m² 12,9 km/h (3 Bft) 97,87 %
11.02.2026 01:50 7,8 °C 7,2 °C 3,3 °C 98 % 984,1 hPa 0,2 l/m² 0 min 0 min 0 W/m² 6,4 km/h (2 Bft) 97,87 %
11.02.2026 01:52 7,8 °C 7,2 °C 3,3 °C 98 % 984,0 hPa 0,0 l/m² 0 min 0 min 0 W/m² 12,9 km/h (3 Bft) 97,87 %
11.02.2026 01:54 7,8 °C 7,2 °C 3,3 °C 98 % 984,0 hPa 0,0 l/m² 0 min 0 min 0 W/m² 12,9 km/h (3 Bft) 95,74 %
11.02.2026 01:56 7,8 °C 7,2 °C 3,3 °C 98 % 984,0 hPa 0,0 l/m² 0 min 0 min 0 W/m² 6,4 km/h (2 Bft) 97,87 %
11.02.2026 01:58 7,8 °C 7,2 °C 3,3 °C 98 % 984,0 hPa 0,0 l/m² 0 min 0 min 0 W/m² 6,4 km/h (2 Bft) 100,00 %
11.02.2026 02:00 7,8 °C 7,2 °C 3,3 °C 98 % 983,9 hPa 0,0 l/m² 0 min 0 min 0 W/m² 6,4 km/h (2 Bft) 100,00 %
11.02.2026 02:02 7,9 °C 7,2 °C 3,9 °C 98 % 984,0 hPa 0,0 l/m² 0 min 0 min 0 W/m² 6,4 km/h (2 Bft) 100,00 %
11.02.2026 02:04 7,9 °C 7,2 °C 3,9 °C 98 % 983,9 hPa 0,0 l/m² 0 min 0 min 0 W/m² 12,9 km/h (3 Bft) 100,00 %
11.02.2026 02:06 7,9 °C 7,2 °C 3,9 °C 98 % 983,8 hPa 0,0 l/m² 0 min 0 min 0 W/m² 12,9 km/h (3 Bft) 100,00 %
11.02.2026 02:08 7,9 °C 7,2 °C 3,9 °C 98 % 983,8 hPa 0,0 l/m² 0 min 0 min 0 W/m² 6,4 km/h (2 Bft) 100,00 %
11.02.2026 02:10 7,9 °C 7,2 °C 3,9 °C 98 % 983,8 hPa 0,0 l/m² 0 min 0 min 0 W/m² 12,9 km/h (3 Bft) 97,14 %
11.02.2026 02:12 7,9 °C 7,2 °C 3,9 °C 98 % 983,8 hPa 0,0 l/m² 0 min 0 min 0 W/m² 16,1 km/h (3 Bft) 100,00 %
11.02.2026 02:14 7,9 °C 7,2 °C 3,9 °C 98 % 983,7 hPa 0,0 l/m² 0 min 0 min 0 W/m² 12,9 km/h (3 Bft) 100,00 %
11.02.2026 02:16 7,9 °C 7,2 °C 3,9 °C 98 % 983,7 hPa 0,0 l/m² 0 min 0 min 0 W/m² 6,4 km/h (2 Bft) 100,00 %
11.02.2026 02:18 7,9 °C 7,2 °C 3,9 °C 98 % 983,7 hPa 0,0 l/m² 0 min 2 min 0 W/m² 12,9 km/h (3 Bft) 100,00 %
11.02.2026 02:20 7,9 °C 7,2 °C 3,9 °C 98 % 983,6 hPa 0,0 l/m² 0 min 0 min 0 W/m² 16,1 km/h (3 Bft) 100,00 %
11.02.2026 02:22 7,9 °C 7,2 °C 3,9 °C 98 % 983,6 hPa 0,0 l/m² 0 min 0 min 0 W/m² 6,4 km/h (2 Bft) 100,00 %
11.02.2026 02:24 7,9 °C 7,2 °C 3,9 °C 98 % 983,6 hPa 0,0 l/m² 0 min 0 min 0 W/m² 12,9 km/h (3 Bft) 100,00 %
11.02.2026 02:26 7,9 °C 7,2 °C 3,9 °C 98 % 983,6 hPa 0,0 l/m² 0 min 0 min 0 W/m² 3,2 km/h (1 Bft) 100,00 %
11.02.2026 02:28 7,9 °C 7,2 °C 3,9 °C 98 % 983,6 hPa 0,0 l/m² 0 min 0 min 0 W/m² 6,4 km/h (2 Bft) 100,00 %
11.02.2026 02:30 7,9 °C 7,2 °C 3,9 °C 98 % 983,5 hPa 0,0 l/m² 0 min 0 min 0 W/m² 6,4 km/h (2 Bft) 100,00 %
11.02.2026 02:32 7,9 °C 7,2 °C 3,9 °C 98 % 983,6 hPa 0,0 l/m² 0 min 0 min 0 W/m² 12,9 km/h (3 Bft) 100,00 %
11.02.2026 02:34 7,9 °C 7,2 °C 3,9 °C 98 % 983,5 hPa 0,0 l/m² 0 min 0 min 0 W/m² 9,7 km/h (2 Bft) 100,00 %
11.02.2026 02:36 7,9 °C 7,2 °C 3,9 °C 98 % 983,5 hPa 0,0 l/m² 0 min 0 min 0 W/m² 6,4 km/h (2 Bft) 97,87 %
11.02.2026 02:38 7,9 °C 7,2 °C 3,9 °C 98 % 983,5 hPa 0,0 l/m² 0 min 0 min 0 W/m² 6,4 km/h (2 Bft) 97,83 %
11.02.2026 02:40 8,0 °C 7,2 °C 3,9 °C 98 % 983,5 hPa 0,0 l/m² 0 min 0 min 0 W/m² 6,4 km/h (2 Bft) 97,87 %
11.02.2026 02:42 8,0 °C 7,2 °C 3,9 °C 98 % 983,4 hPa 0,0 l/m² 0 min 0 min 0 W/m² 6,4 km/h (2 Bft) 97,87 %
11.02.2026 02:44 8,0 °C 7,2 °C 3,9 °C 98 % 983,4 hPa 0,0 l/m² 0 min 0 min 0 W/m² 12,9 km/h (3 Bft) 97,87 %
11.02.2026 02:46 8,0 °C 7,2 °C 3,9 °C 98 % 983,4 hPa 0,0 l/m² 0 min 0 min 0 W/m² 12,9 km/h (3 Bft) 93,62 %
11.02.2026 02:48 8,0 °C 7,2 °C 3,9 °C 98 % 983,4 hPa 0,0 l/m² 0 min 0 min 0 W/m² 6,4 km/h (2 Bft) 97,87 %
11.02.2026 02:50 8,0 °C 7,2 °C 3,9 °C 98 % 983,3 hPa 0,0 l/m² 0 min 0 min 0 W/m² 12,9 km/h (3 Bft) 97,87 %
11.02.2026 02:52 8,0 °C 7,2 °C 3,9 °C 98 % 983,3 hPa 0,0 l/m² 0 min 0 min 0 W/m² 12,9 km/h (3 Bft) 97,87 %
11.02.2026 02:54 8,0 °C 7,2 °C 3,9 °C 98 % 983,3 hPa 0,0 l/m² 0 min 0 min 0 W/m² 12,9 km/h (3 Bft) 97,87 %
11.02.2026 02:56 8,0 °C 7,2 °C 3,9 °C 98 % 983,3 hPa 0,0 l/m² 0 min 0 min 0 W/m² 12,9 km/h (3 Bft) 97,87 %
11.02.2026 02:58 8,0 °C 7,2 °C 3,9 °C 98 % 983,3 hPa 0,0 l/m² 0 min 0 min 0 W/m² 12,9 km/h (3 Bft) 97,87 %
11.02.2026 03:00 8,0 °C 7,2 °C 3,9 °C 98 % 983,3 hPa 0,0 l/m² 0 min 0 min 0 W/m² 16,1 km/h (3 Bft) 95,74 %
11.02.2026 03:02 8,0 °C 7,2 °C 3,9 °C 98 % 983,2 hPa 0,0 l/m² 0 min 0 min 0 W/m² 12,9 km/h (3 Bft) 97,87 %
11.02.2026 03:04 8,0 °C 7,2 °C 3,9 °C 98 % 983,2 hPa 0,0 l/m² 0 min 0 min 0 W/m² 12,9 km/h (3 Bft) 95,74 %
11.02.2026 03:06 8,0 °C 7,2 °C 3,9 °C 99 % 983,2 hPa 0,0 l/m² 0 min 0 min 0 W/m² 6,4 km/h (2 Bft) 98,31 %
11.02.2026 03:08 8,0 °C 7,2 °C 3,9 °C 99 % 983,2 hPa 0,0 l/m² 0 min 0 min 0 W/m² 12,9 km/h (3 Bft) 97,14 %
11.02.2026 03:10 8,0 °C 7,2 °C 3,9 °C 99 % 983,2 hPa 0,0 l/m² 0 min 0 min 0 W/m² 16,1 km/h (3 Bft) 100,00 %
11.02.2026 03:12 8,0 °C 7,2 °C 3,9 °C 99 % 983,1 hPa 0,0 l/m² 0 min 0 min 0 W/m² 9,7 km/h (2 Bft) 100,00 %
11.02.2026 03:14 8,1 °C 7,2 °C 3,9 °C 99 % 983,2 hPa 0,0 l/m² 0 min 0 min 0 W/m² 6,4 km/h (2 Bft) 100,00 %
11.02.2026 03:16 8,1 °C 7,2 °C 3,9 °C 99 % 983,1 hPa 0,0 l/m² 0 min 0 min 0 W/m² 3,2 km/h (1 Bft) 100,00 %
11.02.2026 03:18 8,0 °C 7,2 °C 3,9 °C 99 % 983,1 hPa 0,0 l/m² 0 min 0 min 0 W/m² 12,9 km/h (3 Bft) 100,00 %
11.02.2026 03:20 8,1 °C 7,2 °C 3,9 °C 99 % 983,1 hPa 0,0 l/m² 0 min 0 min 0 W/m² 19,3 km/h (3 Bft) 100,00 %
11.02.2026 03:22 8,1 °C 7,2 °C 3,9 °C 99 % 983,1 hPa 0,0 l/m² 0 min 0 min 0 W/m² 12,9 km/h (3 Bft) 100,00 %
11.02.2026 03:24 8,1 °C 7,2 °C 3,9 °C 99 % 983,0 hPa 0,0 l/m² 0 min 0 min 0 W/m² 19,3 km/h (3 Bft) 100,00 %
11.02.2026 03:26 8,1 °C 7,2 °C 3,9 °C 99 % 983,0 hPa 0,0 l/m² 0 min 0 min 0 W/m² 6,4 km/h (2 Bft) 100,00 %
11.02.2026 03:28 8,1 °C 7,2 °C 3,9 °C 99 % 983,0 hPa 0,0 l/m² 0 min 0 min 0 W/m² 6,4 km/h (2 Bft) 100,00 %
11.02.2026 03:30 8,1 °C 7,2 °C 3,9 °C 99 % 983,0 hPa 0,0 l/m² 0 min 0 min 0 W/m² 6,4 km/h (2 Bft) 100,00 %
11.02.2026 03:32 8,1 °C 7,2 °C 3,9 °C 99 % 983,0 hPa 0,0 l/m² 0 min 0 min 0 W/m² 12,9 km/h (3 Bft) 100,00 %
11.02.2026 03:34 8,1 °C 7,2 °C 3,9 °C 99 % 983,0 hPa 0,0 l/m² 0 min 0 min 0 W/m² 6,4 km/h (2 Bft) 95,74 %
11.02.2026 03:36 8,1 °C 7,2 °C 3,9 °C 99 % 983,0 hPa 0,0 l/m² 0 min 0 min 0 W/m² 12,9 km/h (3 Bft) 100,00 %
11.02.2026 03:38 8,1 °C 7,2 °C 3,9 °C 99 % 983,0 hPa 0,0 l/m² 0 min 0 min 0 W/m² 16,1 km/h (3 Bft) 97,87 %
11.02.2026 03:40 8,1 °C 7,2 °C 3,9 °C 99 % 982,9 hPa 0,0 l/m² 0 min 0 min 0 W/m² 9,7 km/h (2 Bft) 97,87 %
11.02.2026 03:42 8,1 °C 7,2 °C 3,9 °C 98 % 982,9 hPa 0,0 l/m² 0 min 0 min 0 W/m² 6,4 km/h (2 Bft) 97,87 %
11.02.2026 03:44 8,1 °C 7,2 °C 3,9 °C 98 % 982,9 hPa 0,0 l/m² 0 min 0 min 0 W/m² 6,4 km/h (2 Bft) 97,87 %
11.02.2026 03:46 8,1 °C 7,2 °C 3,9 °C 98 % 982,9 hPa 0,0 l/m² 0 min 0 min 0 W/m² 12,9 km/h (3 Bft) 97,87 %
11.02.2026 03:48 8,1 °C 7,2 °C 3,9 °C 98 % 982,9 hPa 0,0 l/m² 0 min 0 min 0 W/m² 9,7 km/h (2 Bft) 95,74 %
11.02.2026 03:50 8,1 °C 7,2 °C 3,9 °C 98 % 982,9 hPa 0,0 l/m² 0 min 0 min 0 W/m² 12,9 km/h (3 Bft) 97,83 %
11.02.2026 03:52 8,1 °C 7,2 °C 3,9 °C 98 % 982,9 hPa 0,0 l/m² 0 min 0 min 0 W/m² 12,9 km/h (3 Bft) 97,87 %
11.02.2026 03:54 8,1 °C 7,2 °C 3,9 °C 98 % 982,9 hPa 0,0 l/m² 0 min 0 min 0 W/m² 12,9 km/h (3 Bft) 97,87 %
11.02.2026 03:56 8,1 °C 7,2 °C 3,9 °C 99 % 982,9 hPa 0,0 l/m² 0 min 0 min 0 W/m² 12,9 km/h (3 Bft) 97,87 %
11.02.2026 03:58 8,1 °C 7,2 °C 3,9 °C 99 % 982,8 hPa 0,0 l/m² 0 min 0 min 0 W/m² 6,4 km/h (2 Bft) 97,87 %
11.02.2026 04:00 8,1 °C 7,2 °C 3,9 °C 99 % 982,8 hPa 0,0 l/m² 0 min 0 min 0 W/m² 12,9 km/h (3 Bft) 98,15 %
11.02.2026 04:05 8,1 °C 7,2 °C 3,9 °C 99 % 982,8 hPa 0,0 l/m² 0 min 0 min 0 W/m² 16,1 km/h (3 Bft) 95,89 %
11.02.2026 04:06 8,1 °C 7,2 °C 3,9 °C 98 % 982,8 hPa 0,0 l/m² 0 min 0 min 0 W/m² 9,7 km/h (2 Bft) 95,83 %
11.02.2026 04:08 8,1 °C 7,2 °C 3,9 °C 99 % 982,8 hPa 0,0 l/m² 0 min 0 min 0 W/m² 12,9 km/h (3 Bft) 95,83 %
11.02.2026 04:10 8,1 °C 7,2 °C 3,9 °C 99 % 982,8 hPa 0,0 l/m² 0 min 0 min 0 W/m² 12,9 km/h (3 Bft) 95,83 %
11.02.2026 04:12 8,1 °C 7,2 °C 3,9 °C 99 % 982,8 hPa 0,0 l/m² 0 min 0 min 0 W/m² 12,9 km/h (3 Bft) 97,83 %
11.02.2026 04:14 8,1 °C 7,2 °C 3,9 °C 99 % 982,8 hPa 0,0 l/m² 0 min 0 min 0 W/m² 12,9 km/h (3 Bft) 93,62 %
11.02.2026 04:16 8,1 °C 7,2 °C 3,9 °C 99 % 982,8 hPa 0,0 l/m² 0 min 0 min 0 W/m² 12,9 km/h (3 Bft) 91,49 %
11.02.2026 04:18 8,1 °C 7,2 °C 3,9 °C 99 % 982,8 hPa 0,0 l/m² 0 min 0 min 0 W/m² 16,1 km/h (3 Bft) 95,74 %
11.02.2026 04:20 8,1 °C 7,2 °C 3,9 °C 99 % 982,7 hPa 0,0 l/m² 0 min 0 min 0 W/m² 9,7 km/h (2 Bft) 95,92 %
11.02.2026 04:22 8,1 °C 7,2 °C 3,9 °C 99 % 982,8 hPa 0,0 l/m² 0 min 0 min 0 W/m² 12,9 km/h (3 Bft) 95,74 %
11.02.2026 04:24 8,1 °C 7,2 °C 3,9 °C 99 % 982,7 hPa 0,0 l/m² 0 min 0 min 0 W/m² 12,9 km/h (3 Bft) 94,29 %
11.02.2026 04:26 8,1 °C 7,2 °C 3,9 °C 99 % 982,7 hPa 0,0 l/m² 0 min 0 min 0 W/m² 12,9 km/h (3 Bft) 95,74 %
11.02.2026 04:28 8,1 °C 7,2 °C 3,9 °C 99 % 982,8 hPa 0,0 l/m² 0 min 0 min 0 W/m² 6,4 km/h (2 Bft) 97,87 %
11.02.2026 04:30 8,1 °C 7,2 °C 3,9 °C 99 % 982,8 hPa 0,0 l/m² 0 min 0 min 0 W/m² 6,4 km/h (2 Bft) 93,62 %
11.02.2026 04:32 8,1 °C 7,2 °C 3,9 °C 99 % 982,8 hPa 0,0 l/m² 0 min 0 min 0 W/m² 12,9 km/h (3 Bft) 93,62 %
11.02.2026 04:34 8,1 °C 7,2 °C 3,9 °C 99 % 982,8 hPa 0,0 l/m² 0 min 0 min 0 W/m² 16,1 km/h (3 Bft) 95,74 %
11.02.2026 04:36 8,1 °C 7,2 °C 3,9 °C 99 % 982,8 hPa 0,0 l/m² 0 min 0 min 0 W/m² 16,1 km/h (3 Bft) 95,74 %
11.02.2026 04:38 8,1 °C 7,2 °C 3,9 °C 99 % 982,9 hPa 0,0 l/m² 0 min 0 min 0 W/m² 16,1 km/h (3 Bft) 95,74 %
11.02.2026 04:40 8,1 °C 7,2 °C 3,9 °C 99 % 982,8 hPa 0,0 l/m² 0 min 0 min 0 W/m² 16,1 km/h (3 Bft) 93,48 %
11.02.2026 04:42 8,1 °C 7,2 °C 3,9 °C 99 % 982,8 hPa 0,0 l/m² 0 min 0 min 0 W/m² 6,4 km/h (2 Bft) 95,74 %
11.02.2026 04:44 8,1 °C 7,2 °C 3,9 °C 99 % 982,8 hPa 0,0 l/m² 0 min 0 min 0 W/m² 12,9 km/h (3 Bft) 95,74 %
11.02.2026 04:46 8,1 °C 7,2 °C 3,9 °C 99 % 982,9 hPa 0,0 l/m² 0 min 0 min 0 W/m² 6,4 km/h (2 Bft) 95,74 %
11.02.2026 04:48 8,1 °C 7,2 °C 3,9 °C 99 % 982,9 hPa 0,0 l/m² 0 min 0 min 0 W/m² 6,4 km/h (2 Bft) 95,74 %
11.02.2026 04:50 8,1 °C 7,2 °C 3,9 °C 99 % 982,8 hPa 0,0 l/m² 0 min 0 min 0 W/m² 16,1 km/h (3 Bft) 95,74 %
11.02.2026 04:52 8,1 °C 7,2 °C 3,9 °C 99 % 982,9 hPa 0,0 l/m² 0 min 0 min 0 W/m² 9,7 km/h (2 Bft) 93,62 %
11.02.2026 04:54 8,1 °C 7,2 °C 3,9 °C 99 % 982,9 hPa 0,0 l/m² 0 min 0 min 0 W/m² 16,1 km/h (3 Bft) 95,74 %
11.02.2026 04:56 8,1 °C 7,2 °C 3,9 °C 99 % 982,9 hPa 0,0 l/m² 0 min 0 min 0 W/m² 16,1 km/h (3 Bft) 97,87 %
11.02.2026 04:58 8,1 °C 7,2 °C 3,9 °C 99 % 982,9 hPa 0,0 l/m² 0 min 0 min 0 W/m² 6,4 km/h (2 Bft) 95,74 %
11.02.2026 05:00 8,1 °C 7,2 °C 3,9 °C 99 % 982,9 hPa 0,0 l/m² 0 min 0 min 0 W/m² 12,9 km/h (3 Bft) 97,87 %
11.02.2026 05:02 8,1 °C 7,2 °C 3,9 °C 99 % 982,9 hPa 0,0 l/m² 0 min 0 min 0 W/m² 6,4 km/h (2 Bft) 100,00 %
11.02.2026 05:04 8,1 °C 7,2 °C 3,9 °C 99 % 982,9 hPa 0,0 l/m² 0 min 0 min 0 W/m² 12,9 km/h (3 Bft) 100,00 %
11.02.2026 05:06 8,1 °C 7,2 °C 3,9 °C 99 % 982,9 hPa 0,0 l/m² 0 min 0 min 0 W/m² 6,4 km/h (2 Bft) 98,31 %
11.02.2026 05:08 8,1 °C 7,2 °C 3,9 °C 99 % 982,9 hPa 0,0 l/m² 0 min 0 min 0 W/m² 6,4 km/h (2 Bft) 100,00 %
11.02.2026 05:10 8,1 °C 7,2 °C 3,9 °C 99 % 982,9 hPa 0,0 l/m² 0 min 0 min 0 W/m² 12,9 km/h (3 Bft) 100,00 %
11.02.2026 05:12 8,1 °C 7,2 °C 3,9 °C 99 % 982,9 hPa 0,0 l/m² 0 min 0 min 0 W/m² 12,9 km/h (3 Bft) 100,00 %
11.02.2026 05:14 8,1 °C 7,2 °C 3,9 °C 99 % 983,0 hPa 0,0 l/m² 0 min 0 min 0 W/m² 6,4 km/h (2 Bft) 100,00 %
11.02.2026 05:16 8,1 °C 7,2 °C 3,9 °C 99 % 983,0 hPa 0,0 l/m² 0 min 0 min 0 W/m² 9,7 km/h (2 Bft) 100,00 %
11.02.2026 05:18 8,1 °C 7,2 °C 3,9 °C 99 % 983,0 hPa 0,0 l/m² 0 min 0 min 0 W/m² 12,9 km/h (3 Bft) 100,00 %
11.02.2026 05:20 8,1 °C 7,2 °C 3,9 °C 99 % 983,0 hPa 0,0 l/m² 0 min 0 min 0 W/m² 3,2 km/h (1 Bft) 100,00 %
11.02.2026 05:22 8,1 °C 7,2 °C 3,9 °C 99 % 983,0 hPa 0,0 l/m² 0 min 0 min 0 W/m² 9,7 km/h (2 Bft) 97,87 %
11.02.2026 05:24 8,1 °C 7,2 °C 3,9 °C 99 % 983,0 hPa 0,0 l/m² 0 min 0 min 0 W/m² 6,4 km/h (2 Bft) 100,00 %
11.02.2026 05:26 8,1 °C 7,2 °C 3,9 °C 99 % 983,0 hPa 0,2 l/m² 0 min 2 min 0 W/m² 16,1 km/h (3 Bft) 100,00 %
11.02.2026 05:28 8,1 °C 7,2 °C 3,9 °C 99 % 983,0 hPa 0,0 l/m² 0 min 2 min 0 W/m² 6,4 km/h (2 Bft) 100,00 %
11.02.2026 05:30 8,1 °C 7,2 °C 3,9 °C 99 % 983,0 hPa 0,0 l/m² 0 min 2 min 0 W/m² 3,2 km/h (1 Bft) 100,00 %
11.02.2026 05:32 8,1 °C 7,2 °C 3,9 °C 99 % 983,0 hPa 0,0 l/m² 0 min 2 min 0 W/m² 12,9 km/h (3 Bft) 100,00 %
11.02.2026 05:34 8,1 °C 7,2 °C 3,9 °C 99 % 983,0 hPa 0,2 l/m² 0 min 2 min 0 W/m² 6,4 km/h (2 Bft) 100,00 %
11.02.2026 05:36 8,1 °C 7,2 °C 3,9 °C 99 % 983,0 hPa 0,0 l/m² 0 min 2 min 0 W/m² 3,2 km/h (1 Bft) 100,00 %
11.02.2026 05:38 8,2 °C 7,2 °C 3,9 °C 99 % 983,1 hPa 0,0 l/m² 0 min 0 min 0 W/m² 12,9 km/h (3 Bft) 100,00 %
11.02.2026 05:40 8,1 °C 7,2 °C 3,9 °C 99 % 983,0 hPa 0,0 l/m² 0 min 0 min 0 W/m² 9,7 km/h (2 Bft) 100,00 %
11.02.2026 05:42 8,1 °C 7,2 °C 3,9 °C 99 % 983,1 hPa 0,0 l/m² 0 min 0 min 0 W/m² 6,4 km/h (2 Bft) 100,00 %
11.02.2026 05:44 8,1 °C 7,2 °C 3,9 °C 99 % 983,1 hPa 0,0 l/m² 0 min 0 min 0 W/m² 6,4 km/h (2 Bft) 100,00 %
11.02.2026 05:46 8,1 °C 7,2 °C 3,9 °C 99 % 983,1 hPa 0,0 l/m² 0 min 0 min 0 W/m² 6,4 km/h (2 Bft) 100,00 %
11.02.2026 05:48 8,1 °C 7,2 °C 3,9 °C 99 % 983,0 hPa 0,0 l/m² 0 min 0 min 0 W/m² 12,9 km/h (3 Bft) 100,00 %
11.02.2026 05:50 8,1 °C 7,2 °C 3,9 °C 99 % 983,0 hPa 0,0 l/m² 0 min 0 min 0 W/m² 12,9 km/h (3 Bft) 100,00 %
11.02.2026 05:52 8,1 °C 7,2 °C 3,9 °C 99 % 983,0 hPa 0,0 l/m² 0 min 0 min 0 W/m² 6,4 km/h (2 Bft) 100,00 %
11.02.2026 05:54 8,1 °C 7,2 °C 3,9 °C 99 % 983,0 hPa 0,0 l/m² 0 min 0 min 0 W/m² 9,7 km/h (2 Bft) 100,00 %
11.02.2026 05:56 8,1 °C 7,2 °C 3,9 °C 99 % 983,0 hPa 0,0 l/m² 0 min 0 min 0 W/m² 12,9 km/h (3 Bft) 100,00 %
11.02.2026 05:58 8,1 °C 7,2 °C 3,9 °C 99 % 983,0 hPa 0,0 l/m² 0 min 0 min 0 W/m² 6,4 km/h (2 Bft) 100,00 %
11.02.2026 06:00 8,1 °C 7,2 °C 3,9 °C 99 % 983,0 hPa 0,0 l/m² 0 min 0 min 0 W/m² 12,9 km/h (3 Bft) 97,87 %
11.02.2026 06:02 8,1 °C 7,2 °C 3,9 °C 99 % 983,0 hPa 0,2 l/m² 0 min 0 min 0 W/m² 9,7 km/h (2 Bft) 100,00 %
11.02.2026 06:04 8,1 °C 7,2 °C 3,9 °C 99 % 983,0 hPa 0,0 l/m² 0 min 2 min 0 W/m² 3,2 km/h (1 Bft) 100,00 %
11.02.2026 06:07 8,1 °C 7,2 °C 3,9 °C 99 % 983,0 hPa 0,0 l/m² 0 min 0 min 0 W/m² 9,7 km/h (2 Bft) 97,14 %
11.02.2026 06:08 8,1 °C 7,2 °C 3,9 °C 99 % 983,0 hPa 0,0 l/m² 0 min 0 min 0 W/m² 6,4 km/h (2 Bft) 100,00 %
11.02.2026 06:12 8,1 °C 7,2 °C 3,9 °C 99 % 982,9 hPa 0,0 l/m² 0 min 0 min 0 W/m² 16,1 km/h (3 Bft) 98,08 %
11.02.2026 06:14 8,1 °C 7,2 °C 3,9 °C 99 % 983,0 hPa 0,0 l/m² 0 min 0 min 0 W/m² 12,9 km/h (3 Bft) 100,00 %
11.02.2026 06:16 8,1 °C 7,2 °C 3,9 °C 99 % 983,0 hPa 0,0 l/m² 0 min 0 min 0 W/m² 6,4 km/h (2 Bft) 97,87 %
11.02.2026 06:18 8,1 °C 7,2 °C 3,9 °C 99 % 983,0 hPa 0,0 l/m² 0 min 0 min 0 W/m² 6,4 km/h (2 Bft) 97,87 %
11.02.2026 06:20 8,1 °C 7,2 °C 3,9 °C 99 % 983,0 hPa 0,0 l/m² 0 min 0 min 0 W/m² 0,0 km/h (0 Bft) 97,87 %
11.02.2026 06:22 8,1 °C 7,2 °C 3,9 °C 99 % 983,0 hPa 0,0 l/m² 0 min 0 min 0 W/m² 6,4 km/h (2 Bft) 95,74 %
11.02.2026 06:24 8,1 °C 7,2 °C 3,9 °C 99 % 983,0 hPa 0,0 l/m² 0 min 0 min 0 W/m² 6,4 km/h (2 Bft) 95,74 %
11.02.2026 06:26 8,1 °C 7,2 °C 3,9 °C 99 % 983,0 hPa 0,0 l/m² 0 min 0 min 0 W/m² 6,4 km/h (2 Bft) 93,62 %
11.02.2026 06:28 8,1 °C 7,2 °C 3,9 °C 99 % 983,0 hPa 0,0 l/m² 0 min 0 min 0 W/m² 6,4 km/h (2 Bft) 95,74 %
11.02.2026 06:30 8,1 °C 7,2 °C 3,9 °C 99 % 983,0 hPa 0,0 l/m² 0 min 0 min 0 W/m² 3,2 km/h (1 Bft) 95,74 %
11.02.2026 06:32 8,1 °C 7,2 °C 3,9 °C 99 % 982,9 hPa 0,0 l/m² 0 min 0 min 0 W/m² 3,2 km/h (1 Bft) 91,49 %
11.02.2026 06:34 8,1 °C 7,2 °C 3,9 °C 99 % 983,0 hPa 0,0 l/m² 0 min 0 min 0 W/m² 6,4 km/h (2 Bft) 93,62 %
11.02.2026 06:36 8,1 °C 7,2 °C 3,9 °C 99 % 983,0 hPa 0,0 l/m² 0 min 0 min 0 W/m² 3,2 km/h (1 Bft) 95,65 %
11.02.2026 06:38 8,1 °C 7,2 °C 3,9 °C 99 % 982,9 hPa 0,0 l/m² 0 min 0 min 0 W/m² 0,0 km/h (0 Bft) 95,74 %
11.02.2026 06:40 8,1 °C 7,2 °C 3,9 °C 99 % 983,0 hPa 0,0 l/m² 0 min 0 min 0 W/m² 3,2 km/h (1 Bft) 55,32 %
11.02.2026 06:42 8,1 °C 7,2 °C 3,9 °C 99 % 983,0 hPa 0,0 l/m² 0 min 0 min 0 W/m² 6,4 km/h (2 Bft) 91,49 %
11.02.2026 06:44 8,1 °C 7,2 °C 3,9 °C 99 % 982,9 hPa 0,0 l/m² 0 min 0 min 0 W/m² 6,4 km/h (2 Bft) 95,74 %
11.02.2026 06:46 8,1 °C 7,2 °C 3,9 °C 99 % 982,9 hPa 0,0 l/m² 0 min 0 min 0 W/m² 6,4 km/h (2 Bft) 93,62 %
11.02.2026 06:48 8,1 °C 7,2 °C 3,9 °C 99 % 982,9 hPa 0,0 l/m² 0 min 0 min 0 W/m² 6,4 km/h (2 Bft) 95,74 %
11.02.2026 06:50 8,1 °C 7,2 °C 3,9 °C 99 % 982,9 hPa 0,0 l/m² 0 min 0 min 0 W/m² 9,7 km/h (2 Bft) 95,74 %
11.02.2026 06:52 8,1 °C 7,2 °C 3,9 °C 99 % 982,9 hPa 0,0 l/m² 0 min 0 min 0 W/m² 12,9 km/h (3 Bft) 95,74 %
11.02.2026 06:54 8,1 °C 7,2 °C 3,9 °C 99 % 982,9 hPa 0,0 l/m² 0 min 0 min 0 W/m² 6,4 km/h (2 Bft) 95,74 %
11.02.2026 06:56 8,1 °C 7,2 °C 3,9 °C 99 % 982,9 hPa 0,0 l/m² 0 min 0 min 0 W/m² 9,7 km/h (2 Bft) 95,74 %
11.02.2026 06:58 8,1 °C 7,2 °C 3,9 °C 99 % 982,9 hPa 0,0 l/m² 0 min 0 min 0 W/m² 6,4 km/h (2 Bft) 95,74 %
11.02.2026 07:00 8,1 °C 7,2 °C 3,9 °C 99 % 983,0 hPa 0,0 l/m² 0 min 0 min 0 W/m² 6,4 km/h (2 Bft) 97,83 %
11.02.2026 07:02 8,1 °C 7,2 °C 3,9 °C 99 % 983,0 hPa 0,0 l/m² 0 min 0 min 0 W/m² 6,4 km/h (2 Bft) 97,87 %
11.02.2026 07:04 8,1 °C 7,2 °C 3,9 °C 99 % 983,0 hPa 0,0 l/m² 0 min 0 min 0 W/m² 6,4 km/h (2 Bft) 97,96 %
11.02.2026 07:06 8,1 °C 7,2 °C 3,9 °C 99 % 983,0 hPa 0,0 l/m² 0 min 0 min 0 W/m² 3,2 km/h (1 Bft) 95,74 %
11.02.2026 07:08 8,1 °C 7,2 °C 3,9 °C 99 % 983,0 hPa 0,0 l/m² 0 min 0 min 0 W/m² 3,2 km/h (1 Bft) 97,87 %
11.02.2026 07:10 8,1 °C 7,2 °C 3,9 °C 99 % 983,0 hPa 0,0 l/m² 0 min 0 min 0 W/m² 3,2 km/h (1 Bft) 95,74 %
11.02.2026 07:12 8,1 °C 7,2 °C 3,9 °C 99 % 983,0 hPa 0,0 l/m² 0 min 0 min 0 W/m² 3,2 km/h (1 Bft) 93,62 %
11.02.2026 07:14 8,1 °C 7,2 °C 3,9 °C 99 % 983,0 hPa 0,0 l/m² 0 min 2 min 0 W/m² 3,2 km/h (1 Bft) 100,00 %
11.02.2026 07:16 8,1 °C 7,2 °C 3,9 °C 99 % 983,0 hPa 0,0 l/m² 0 min 0 min 0 W/m² 6,4 km/h (2 Bft) 97,87 %
11.02.2026 07:18 8,1 °C 7,2 °C 3,9 °C 99 % 983,0 hPa 0,0 l/m² 0 min 0 min 0 W/m² 3,2 km/h (1 Bft) 97,87 %
11.02.2026 07:20 8,1 °C 7,2 °C 3,9 °C 99 % 983,0 hPa 0,0 l/m² 0 min 0 min 0 W/m² 6,4 km/h (2 Bft) 95,74 %
11.02.2026 07:22 8,1 °C 7,2 °C 3,9 °C 99 % 983,0 hPa 0,2 l/m² 0 min 0 min 0 W/m² 6,4 km/h (2 Bft) 95,65 %
11.02.2026 07:24 8,1 °C 7,2 °C 4,4 °C 99 % 983,0 hPa 0,0 l/m² 0 min 0 min 0 W/m² 3,2 km/h (1 Bft) 95,74 %
11.02.2026 07:26 8,1 °C 7,2 °C 4,4 °C 99 % 982,9 hPa 0,0 l/m² 0 min 0 min 0 W/m² 3,2 km/h (1 Bft) 100,00 %
11.02.2026 07:28 8,1 °C 7,2 °C 4,4 °C 99 % 983,0 hPa 0,0 l/m² 0 min 0 min 0 W/m² 6,4 km/h (2 Bft) 95,74 %
11.02.2026 07:30 8,1 °C 7,2 °C 4,4 °C 99 % 983,0 hPa 0,0 l/m² 0 min 0 min 0 W/m² 3,2 km/h (1 Bft) 97,83 %
11.02.2026 07:32 8,1 °C 7,2 °C 4,4 °C 99 % 983,0 hPa 0,0 l/m² 0 min 0 min 0 W/m² 6,4 km/h (2 Bft) 97,87 %
11.02.2026 07:34 8,1 °C 7,2 °C 4,4 °C 99 % 983,0 hPa 0,0 l/m² 0 min 0 min 0 W/m² 9,7 km/h (2 Bft) 97,87 %
11.02.2026 07:36 8,1 °C 7,2 °C 4,4 °C 99 % 983,0 hPa 0,0 l/m² 0 min 0 min 0 W/m² 3,2 km/h (1 Bft) 97,87 %
11.02.2026 07:38 8,1 °C 7,2 °C 4,4 °C 99 % 983,1 hPa 0,0 l/m² 0 min 0 min 0 W/m² 0,0 km/h (0 Bft) 97,87 %
11.02.2026 07:40 8,1 °C 7,2 °C 4,4 °C 99 % 983,1 hPa 0,0 l/m² 0 min 0 min 0 W/m² 3,2 km/h (1 Bft) 97,87 %
11.02.2026 07:42 8,1 °C 7,2 °C 4,4 °C 99 % 983,1 hPa 0,0 l/m² 0 min 0 min 0 W/m² 6,4 km/h (2 Bft) 95,74 %
11.02.2026 07:44 8,1 °C 7,2 °C 4,4 °C 99 % 983,1 hPa 0,0 l/m² 0 min 0 min 0 W/m² 6,4 km/h (2 Bft) 95,74 %
11.02.2026 07:46 8,1 °C 7,2 °C 4,4 °C 99 % 983,2 hPa 0,0 l/m² 0 min 0 min 0 W/m² 9,7 km/h (2 Bft) 95,74 %
11.02.2026 07:48 8,1 °C 7,2 °C 4,4 °C 99 % 983,1 hPa 0,0 l/m² 0 min 0 min 0 W/m² 9,7 km/h (2 Bft) 97,87 %
11.02.2026 07:50 8,2 °C 7,8 °C 4,4 °C 99 % 983,2 hPa 0,0 l/m² 0 min 0 min 0 W/m² 9,7 km/h (2 Bft) 97,87 %
11.02.2026 07:52 8,2 °C 7,8 °C 4,4 °C 99 % 983,2 hPa 0,0 l/m² 0 min 0 min 0 W/m² 9,7 km/h (2 Bft) 95,65 %
11.02.2026 07:54 8,2 °C 7,8 °C 4,4 °C 99 % 983,2 hPa 0,0 l/m² 0 min 0 min 0 W/m² 9,7 km/h (2 Bft) 100,00 %
11.02.2026 07:56 8,2 °C 7,8 °C 4,4 °C 99 % 983,3 hPa 0,0 l/m² 0 min 0 min 0 W/m² 9,7 km/h (2 Bft) 97,87 %
11.02.2026 07:58 8,3 °C 7,8 °C 4,4 °C 99 % 983,3 hPa 0,0 l/m² 0 min 0 min 0 W/m² 9,7 km/h (2 Bft) 95,74 %
11.02.2026 08:00 8,3 °C 7,8 °C 4,4 °C 99 % 983,3 hPa 0,0 l/m² 0 min 0 min 0 W/m² 6,4 km/h (2 Bft) 100,00 %
11.02.2026 08:02 8,3 °C 7,8 °C 4,4 °C 99 % 983,3 hPa 0,0 l/m² 0 min 0 min 0 W/m² 6,4 km/h (2 Bft) 95,74 %
11.02.2026 08:04 8,3 °C 7,8 °C 4,4 °C 99 % 983,3 hPa 0,0 l/m² 0 min 0 min 0 W/m² 6,4 km/h (2 Bft) 100,00 %
11.02.2026 08:06 8,3 °C 7,8 °C 4,4 °C 99 % 983,3 hPa 0,0 l/m² 0 min 0 min 0 W/m² 0,0 km/h (0 Bft) 63,64 %
11.02.2026 08:08 8,4 °C 7,8 °C 4,4 °C 99 % 983,3 hPa 0,0 l/m² 0 min 0 min 0 W/m² 6,4 km/h (2 Bft) 97,14 %
11.02.2026 08:10 8,4 °C 7,8 °C 4,4 °C 99 % 983,4 hPa 0,0 l/m² 0 min 0 min 0 W/m² 6,4 km/h (2 Bft) 97,87 %
11.02.2026 08:12 8,4 °C 7,8 °C 4,4 °C 99 % 983,4 hPa 0,0 l/m² 0 min 0 min 0 W/m² 6,4 km/h (2 Bft) 100,00 %
11.02.2026 08:14 8,4 °C 7,8 °C 4,4 °C 99 % 983,4 hPa 0,0 l/m² 0 min 0 min 0 W/m² 6,4 km/h (2 Bft) 100,00 %
11.02.2026 08:16 8,5 °C 7,8 °C 4,4 °C 99 % 983,4 hPa 0,0 l/m² 0 min 0 min 0 W/m² 6,4 km/h (2 Bft) 97,87 %
11.02.2026 08:18 8,5 °C 7,8 °C 4,4 °C 99 % 983,4 hPa 0,0 l/m² 0 min 0 min 1 W/m² 9,7 km/h (2 Bft) 97,87 %
11.02.2026 08:20 8,6 °C 7,8 °C 4,4 °C 99 % 983,4 hPa 0,0 l/m² 0 min 0 min 5 W/m² 9,7 km/h (2 Bft) 97,87 %
11.02.2026 08:22 8,6 °C 7,8 °C 4,4 °C 99 % 983,4 hPa 0,0 l/m² 0 min 0 min 5 W/m² 3,2 km/h (1 Bft) 97,87 %
11.02.2026 08:24 8,6 °C 7,8 °C 4,4 °C 99 % 983,4 hPa 0,0 l/m² 0 min 0 min 5 W/m² 3,2 km/h (1 Bft) 97,87 %
11.02.2026 08:26 8,6 °C 7,8 °C 4,4 °C 99 % 983,5 hPa 0,0 l/m² 0 min 0 min 5 W/m² 6,4 km/h (2 Bft) 97,87 %
11.02.2026 08:28 8,6 °C 7,8 °C 4,4 °C 99 % 983,5 hPa 0,0 l/m² 0 min 0 min 7 W/m² 3,2 km/h (1 Bft) 95,74 %
11.02.2026 08:30 8,6 °C 7,8 °C 4,4 °C 99 % 983,5 hPa 0,0 l/m² 0 min 0 min 8 W/m² 3,2 km/h (1 Bft) 97,87 %
11.02.2026 08:32 8,6 °C 7,8 °C 4,4 °C 99 % 983,5 hPa 0,0 l/m² 0 min 0 min 10 W/m² 3,2 km/h (1 Bft) 97,87 %
11.02.2026 08:34 8,6 °C 7,8 °C 4,4 °C 99 % 983,5 hPa 0,0 l/m² 0 min 0 min 12 W/m² 3,2 km/h (1 Bft) 97,87 %
11.02.2026 08:36 8,6 °C 7,8 °C 4,4 °C 99 % 983,6 hPa 0,0 l/m² 0 min 0 min 12 W/m² 3,2 km/h (1 Bft) 97,83 %
11.02.2026 08:38 8,7 °C 7,8 °C 4,4 °C 99 % 983,6 hPa 0,0 l/m² 0 min 0 min 12 W/m² 3,2 km/h (1 Bft) 95,74 %
11.02.2026 08:40 8,7 °C 7,8 °C 5,0 °C 99 % 983,6 hPa 0,0 l/m² 0 min 0 min 11 W/m² 3,2 km/h (1 Bft) 95,74 %
11.02.2026 08:42 8,7 °C 7,8 °C 5,0 °C 99 % 983,6 hPa 0,0 l/m² 0 min 0 min 11 W/m² 6,4 km/h (2 Bft) 97,87 %
11.02.2026 08:44 8,7 °C 7,8 °C 5,0 °C 99 % 983,7 hPa 0,0 l/m² 0 min 0 min 11 W/m² 16,1 km/h (3 Bft) 93,62 %
11.02.2026 08:46 8,8 °C 7,8 °C 5,0 °C 99 % 983,7 hPa 0,0 l/m² 0 min 0 min 12 W/m² 6,4 km/h (2 Bft) 97,87 %
11.02.2026 08:48 8,8 °C 8,3 °C 5,0 °C 99 % 983,7 hPa 0,0 l/m² 0 min 0 min 15 W/m² 6,4 km/h (2 Bft) 97,87 %
11.02.2026 08:50 8,8 °C 8,3 °C 5,0 °C 99 % 983,7 hPa 0,0 l/m² 0 min 0 min 18 W/m² 6,4 km/h (2 Bft) 100,00 %
11.02.2026 08:52 8,8 °C 8,3 °C 5,0 °C 99 % 983,7 hPa 0,0 l/m² 0 min 0 min 19 W/m² 6,4 km/h (2 Bft) 97,87 %
11.02.2026 08:54 8,8 °C 8,3 °C 5,0 °C 99 % 983,7 hPa 0,0 l/m² 0 min 0 min 23 W/m² 6,4 km/h (2 Bft) 97,87 %
11.02.2026 08:56 8,8 °C 8,3 °C 5,0 °C 99 % 983,7 hPa 0,0 l/m² 0 min 0 min 28 W/m² 3,2 km/h (1 Bft) 97,87 %
11.02.2026 08:58 8,8 °C 8,3 °C 5,0 °C 99 % 983,8 hPa 0,0 l/m² 0 min 0 min 31 W/m² 6,4 km/h (2 Bft) 97,83 %
11.02.2026 09:00 8,8 °C 8,3 °C 5,0 °C 99 % 983,8 hPa 0,0 l/m² 0 min 0 min 35 W/m² 3,2 km/h (1 Bft) 97,87 %
11.02.2026 09:02 8,9 °C 8,3 °C 5,0 °C 99 % 983,8 hPa 0,0 l/m² 0 min 0 min 35 W/m² 3,2 km/h (1 Bft) 97,87 %
11.02.2026 09:04 8,9 °C 8,3 °C 5,0 °C 99 % 983,8 hPa 0,0 l/m² 0 min 0 min 34 W/m² 9,7 km/h (2 Bft) 97,96 %
11.02.2026 09:06 8,9 °C 8,3 °C 5,0 °C 99 % 983,9 hPa 0,0 l/m² 0 min 0 min 32 W/m² 12,9 km/h (3 Bft) 97,87 %
11.02.2026 09:08 8,9 °C 8,3 °C 5,0 °C 100 % 983,9 hPa 0,0 l/m² 0 min 0 min 31 W/m² 6,4 km/h (2 Bft) 97,87 %
11.02.2026 09:10 9,0 °C 8,3 °C 5,0 °C 100 % 983,9 hPa 0,0 l/m² 0 min 0 min 28 W/m² 6,4 km/h (2 Bft) 97,87 %
11.02.2026 09:12 9,1 °C 8,3 °C 5,0 °C 100 % 983,9 hPa 0,0 l/m² 0 min 0 min 25 W/m² 6,4 km/h (2 Bft) 97,87 %
11.02.2026 09:14 9,1 °C 8,3 °C 5,0 °C 100 % 983,9 hPa 0,0 l/m² 0 min 0 min 25 W/m² 3,2 km/h (1 Bft) 97,87 %
11.02.2026 09:16 9,1 °C 8,3 °C 5,0 °C 100 % 983,9 hPa 0,0 l/m² 0 min 0 min 25 W/m² 6,4 km/h (2 Bft) 97,87 %
11.02.2026 09:18 9,1 °C 8,3 °C 5,0 °C 99 % 983,9 hPa 0,0 l/m² 0 min 0 min 28 W/m² 6,4 km/h (2 Bft) 93,62 %
11.02.2026 09:20 9,2 °C 8,3 °C 5,6 °C 99 % 983,9 hPa 0,0 l/m² 0 min 0 min 29 W/m² 9,7 km/h (2 Bft) 97,87 %
11.02.2026 09:22 9,2 °C 8,3 °C 5,6 °C 99 % 984,0 hPa 0,0 l/m² 0 min 2 min 27 W/m² 3,2 km/h (1 Bft) 97,83 %
11.02.2026 09:24 9,2 °C 8,3 °C 5,6 °C 99 % 984,0 hPa 0,0 l/m² 0 min 0 min 24 W/m² 3,2 km/h (1 Bft) 97,87 %
11.02.2026 09:26 9,2 °C 8,9 °C 5,6 °C 99 % 984,0 hPa 0,0 l/m² 0 min 0 min 22 W/m² 12,9 km/h (3 Bft) 97,87 %
11.02.2026 09:28 9,3 °C 8,9 °C 5,6 °C 99 % 984,0 hPa 0,0 l/m² 0 min 0 min 24 W/m² 16,1 km/h (3 Bft) 97,87 %
11.02.2026 09:30 9,3 °C 8,9 °C 5,6 °C 100 % 984,0 hPa 0,0 l/m² 0 min 0 min 22 W/m² 6,4 km/h (2 Bft) 95,74 %
11.02.2026 09:32 9,3 °C 8,9 °C 5,6 °C 100 % 984,0 hPa 0,0 l/m² 0 min 0 min 22 W/m² 9,7 km/h (2 Bft) 97,87 %
11.02.2026 09:34 9,3 °C 8,9 °C 5,6 °C 100 % 984,0 hPa 0,0 l/m² 0 min 0 min 25 W/m² 3,2 km/h (1 Bft) 95,74 %
11.02.2026 09:36 9,3 °C 8,9 °C 5,6 °C 100 % 983,9 hPa 0,0 l/m² 0 min 0 min 25 W/m² 6,4 km/h (2 Bft) 95,74 %
11.02.2026 09:38 9,4 °C 8,9 °C 5,6 °C 100 % 984,0 hPa 0,0 l/m² 0 min 0 min 28 W/m² 6,4 km/h (2 Bft) 100,00 %
11.02.2026 09:40 9,4 °C 8,9 °C 5,6 °C 100 % 984,1 hPa 0,0 l/m² 0 min 0 min 29 W/m² 12,9 km/h (3 Bft) 97,87 %
11.02.2026 09:42 9,4 °C 8,9 °C 5,6 °C 100 % 984,1 hPa 0,0 l/m² 0 min 0 min 30 W/m² 3,2 km/h (1 Bft) 95,74 %
11.02.2026 09:44 9,4 °C 8,9 °C 5,6 °C 100 % 984,1 hPa 0,0 l/m² 0 min 0 min 31 W/m² 0,0 km/h (0 Bft) 100,00 %
11.02.2026 09:46 9,4 °C 8,9 °C 5,6 °C 100 % 984,1 hPa 0,0 l/m² 0 min 0 min 29 W/m² 6,4 km/h (2 Bft) 95,65 %
11.02.2026 09:48 9,5 °C 8,9 °C 5,6 °C 100 % 984,1 hPa 0,0 l/m² 0 min 0 min 31 W/m² 12,9 km/h (3 Bft) 97,87 %
11.02.2026 09:50 9,5 °C 8,9 °C 5,6 °C 100 % 984,1 hPa 0,0 l/m² 0 min 0 min 27 W/m² 6,4 km/h (2 Bft) 100,00 %
11.02.2026 09:52 9,5 °C 8,9 °C 5,6 °C 100 % 984,2 hPa 0,0 l/m² 0 min 0 min 26 W/m² 12,9 km/h (3 Bft) 97,87 %
11.02.2026 09:54 9,6 °C 8,9 °C 5,6 °C 100 % 984,2 hPa 0,0 l/m² 0 min 0 min 26 W/m² 6,4 km/h (2 Bft) 97,87 %
11.02.2026 09:56 9,6 °C 8,9 °C 5,6 °C 100 % 984,2 hPa 0,0 l/m² 0 min 0 min 27 W/m² 9,7 km/h (2 Bft) 97,87 %
11.02.2026 09:58 9,6 °C 9,4 °C 5,6 °C 100 % 984,2 hPa 0,0 l/m² 0 min 0 min 29 W/m² 9,7 km/h (2 Bft) 97,87 %
11.02.2026 10:00 9,6 °C 9,4 °C 5,6 °C 100 % 984,2 hPa 0,0 l/m² 0 min 0 min 32 W/m² 6,4 km/h (2 Bft) 97,37 %
11.02.2026 10:02 9,6 °C 9,4 °C 5,6 °C 100 % 984,2 hPa 0,0 l/m² 0 min 0 min 32 W/m² 16,1 km/h (3 Bft) 97,87 %
11.02.2026 10:04 9,6 °C 9,4 °C 5,6 °C 100 % 984,3 hPa 0,0 l/m² 0 min 0 min 30 W/m² 6,4 km/h (2 Bft) 95,83 %
11.02.2026 10:06 9,6 °C 9,4 °C 5,6 °C 100 % 984,3 hPa 0,0 l/m² 0 min 0 min 30 W/m² 6,4 km/h (2 Bft) 98,28 %
11.02.2026 10:08 9,6 °C 9,4 °C 5,6 °C 100 % 984,3 hPa 0,0 l/m² 0 min 0 min 35 W/m² 0,0 km/h (0 Bft) 97,22 %
11.02.2026 10:10 9,7 °C 9,4 °C 5,6 °C 100 % 984,3 hPa 0,0 l/m² 0 min 0 min 34 W/m² 12,9 km/h (3 Bft) 97,87 %
11.02.2026 10:12 9,7 °C 9,4 °C 5,6 °C 100 % 984,3 hPa 0,0 l/m² 0 min 0 min 36 W/m² 12,9 km/h (3 Bft) 97,87 %
11.02.2026 10:14 9,7 °C 9,4 °C 6,1 °C 100 % 984,3 hPa 0,0 l/m² 0 min 0 min 32 W/m² 12,9 km/h (3 Bft) 93,48 %
11.02.2026 10:16 9,7 °C 9,4 °C 5,6 °C 100 % 984,3 hPa 0,0 l/m² 0 min 0 min 35 W/m² 6,4 km/h (2 Bft) 95,74 %
11.02.2026 10:18 9,7 °C 9,4 °C 5,6 °C 100 % 984,3 hPa 0,0 l/m² 0 min 0 min 38 W/m² 6,4 km/h (2 Bft) 95,74 %
11.02.2026 10:20 9,7 °C 9,4 °C 5,6 °C 100 % 984,3 hPa 0,0 l/m² 0 min 0 min 40 W/m² 3,2 km/h (1 Bft) 95,74 %
11.02.2026 10:22 9,8 °C 9,4 °C 5,6 °C 100 % 984,3 hPa 0,0 l/m² 0 min 0 min 49 W/m² 6,4 km/h (2 Bft) 91,49 %
11.02.2026 10:24 9,8 °C 9,4 °C 6,1 °C 100 % 984,4 hPa 0,0 l/m² 0 min 0 min 48 W/m² 6,4 km/h (2 Bft) 95,74 %
11.02.2026 10:26 9,8 °C 9,4 °C 6,1 °C 100 % 984,4 hPa 0,0 l/m² 0 min 0 min 50 W/m² 3,2 km/h (1 Bft) 93,62 %
11.02.2026 10:28 9,8 °C 9,4 °C 6,1 °C 100 % 984,4 hPa 0,0 l/m² 0 min 0 min 54 W/m² 6,4 km/h (2 Bft) 95,74 %
11.02.2026 10:30 9,8 °C 9,4 °C 6,1 °C 100 % 984,4 hPa 0,0 l/m² 0 min 0 min 48 W/m² 12,9 km/h (3 Bft) 93,62 %
11.02.2026 10:32 9,8 °C 9,4 °C 6,1 °C 100 % 984,4 hPa 0,0 l/m² 0 min 0 min 43 W/m² 9,7 km/h (2 Bft) 95,74 %
11.02.2026 10:34 9,8 °C 9,4 °C 6,1 °C 100 % 984,4 hPa 0,0 l/m² 0 min 0 min 46 W/m² 12,9 km/h (3 Bft) 95,74 %
11.02.2026 10:36 9,8 °C 9,4 °C 6,1 °C 100 % 984,4 hPa 0,0 l/m² 0 min 0 min 44 W/m² 12,9 km/h (3 Bft) 95,74 %
11.02.2026 10:38 9,8 °C 9,4 °C 6,1 °C 100 % 984,4 hPa 0,0 l/m² 0 min 0 min 45 W/m² 6,4 km/h (2 Bft) 93,62 %
11.02.2026 10:40 9,8 °C 9,4 °C 6,1 °C 100 % 984,5 hPa 0,0 l/m² 0 min 0 min 46 W/m² 3,2 km/h (1 Bft) 97,83 %
11.02.2026 10:42 9,8 °C 9,4 °C 6,1 °C 100 % 984,5 hPa 0,0 l/m² 0 min 0 min 44 W/m² 6,4 km/h (2 Bft) 91,49 %
11.02.2026 10:44 9,8 °C 9,4 °C 6,1 °C 100 % 984,5 hPa 0,0 l/m² 0 min 0 min 39 W/m² 6,4 km/h (2 Bft) 95,74 %
11.02.2026 10:46 9,8 °C 9,4 °C 6,1 °C 100 % 984,5 hPa 0,0 l/m² 0 min 0 min 33 W/m² 9,7 km/h (2 Bft) 97,87 %
11.02.2026 10:48 9,9 °C 9,4 °C 6,1 °C 100 % 984,5 hPa 0,0 l/m² 0 min 0 min 37 W/m² 6,4 km/h (2 Bft) 97,87 %
11.02.2026 10:50 9,8 °C 9,4 °C 6,1 °C 100 % 984,5 hPa 0,0 l/m² 0 min 0 min 35 W/m² 16,1 km/h (3 Bft) 100,00 %
11.02.2026 10:52 9,9 °C 9,4 °C 6,1 °C 100 % 984,5 hPa 0,0 l/m² 0 min 0 min 36 W/m² 16,1 km/h (3 Bft) 97,87 %
11.02.2026 10:54 9,8 °C 9,4 °C 6,1 °C 100 % 984,6 hPa 0,0 l/m² 0 min 0 min 34 W/m² 12,9 km/h (3 Bft) 97,87 %
11.02.2026 10:56 9,9 °C 9,4 °C 6,1 °C 100 % 984,6 hPa 0,0 l/m² 0 min 0 min 31 W/m² 12,9 km/h (3 Bft) 100,00 %
11.02.2026 10:58 9,9 °C 9,4 °C 6,1 °C 100 % 984,6 hPa 0,0 l/m² 0 min 0 min 29 W/m² 6,4 km/h (2 Bft) 100,00 %
11.02.2026 11:00 9,9 °C 9,4 °C 6,1 °C 100 % 984,6 hPa 0,0 l/m² 0 min 0 min 33 W/m² 12,9 km/h (3 Bft) 100,00 %
11.02.2026 11:02 9,9 °C 9,4 °C 6,1 °C 100 % 984,7 hPa 0,0 l/m² 0 min 0 min 37 W/m² 16,1 km/h (3 Bft) 100,00 %
11.02.2026 11:04 9,9 °C 9,4 °C 6,1 °C 100 % 984,6 hPa 0,0 l/m² 0 min 0 min 40 W/m² 12,9 km/h (3 Bft) 100,00 %
11.02.2026 11:06 9,9 °C 9,4 °C 6,1 °C 100 % 984,7 hPa 0,0 l/m² 0 min 0 min 39 W/m² 12,9 km/h (3 Bft) 100,00 %
11.02.2026 11:08 9,9 °C 9,4 °C 6,1 °C 100 % 984,6 hPa 0,0 l/m² 0 min 0 min 38 W/m² 12,9 km/h (3 Bft) 97,87 %
11.02.2026 11:10 9,9 °C 9,4 °C 6,1 °C 100 % 984,7 hPa 0,0 l/m² 0 min 0 min 36 W/m² 12,9 km/h (3 Bft) 100,00 %
11.02.2026 11:12 9,9 °C 9,4 °C 6,1 °C 100 % 984,7 hPa 0,0 l/m² 0 min 0 min 37 W/m² 12,9 km/h (3 Bft) 100,00 %
11.02.2026 11:14 9,9 °C 9,4 °C 6,1 °C 100 % 984,7 hPa 0,0 l/m² 0 min 0 min 34 W/m² 12,9 km/h (3 Bft) 100,00 %
11.02.2026 11:16 9,9 °C 9,4 °C 6,1 °C 100 % 984,7 hPa 0,0 l/m² 0 min 0 min 34 W/m² 12,9 km/h (3 Bft) 95,74 %
11.02.2026 11:18 9,9 °C 9,4 °C 6,1 °C 100 % 984,8 hPa 0,0 l/m² 0 min 0 min 42 W/m² 12,9 km/h (3 Bft) 100,00 %
11.02.2026 11:20 9,9 °C 9,4 °C 6,1 °C 100 % 984,9 hPa 0,0 l/m² 0 min 0 min 54 W/m² 6,4 km/h (2 Bft) 97,87 %
11.02.2026 11:22 9,9 °C 9,4 °C 6,1 °C 100 % 984,8 hPa 0,0 l/m² 0 min 0 min 60 W/m² 12,9 km/h (3 Bft) 97,87 %
11.02.2026 11:24 9,9 °C 10,0 °C 6,1 °C 100 % 984,9 hPa 0,0 l/m² 0 min 0 min 76 W/m² 12,9 km/h (3 Bft) 97,87 %
11.02.2026 11:26 9,9 °C 10,0 °C 6,1 °C 100 % 984,9 hPa 0,0 l/m² 0 min 0 min 98 W/m² 12,9 km/h (3 Bft) 100,00 %
11.02.2026 11:28 10,0 °C 10,0 °C 6,1 °C 100 % 984,9 hPa 0,0 l/m² 0 min 0 min 98 W/m² 19,3 km/h (3 Bft) 100,00 %
11.02.2026 11:30 10,0 °C 10,0 °C 6,1 °C 100 % 984,9 hPa 0,0 l/m² 0 min 0 min 90 W/m² 12,9 km/h (3 Bft) 95,74 %
11.02.2026 11:32 10,1 °C 10,0 °C 6,1 °C 100 % 984,9 hPa 0,0 l/m² 0 min 0 min 84 W/m² 6,4 km/h (2 Bft) 97,87 %
11.02.2026 11:34 10,1 °C 10,0 °C 6,1 °C 100 % 984,9 hPa 0,0 l/m² 0 min 0 min 78 W/m² 16,1 km/h (3 Bft) 100,00 %
11.02.2026 11:36 10,1 °C 10,0 °C 6,7 °C 100 % 984,9 hPa 0,0 l/m² 0 min 0 min 74 W/m² 9,7 km/h (2 Bft) 97,87 %
11.02.2026 11:38 10,1 °C 10,0 °C 6,7 °C 100 % 984,9 hPa 0,0 l/m² 0 min 0 min 77 W/m² 6,4 km/h (2 Bft) 97,87 %
11.02.2026 11:40 10,1 °C 10,0 °C 6,7 °C 100 % 985,0 hPa 0,0 l/m² 0 min 0 min 64 W/m² 3,2 km/h (1 Bft) 95,74 %
11.02.2026 11:42 10,1 °C 10,0 °C 6,7 °C 100 % 984,9 hPa 0,0 l/m² 0 min 0 min 55 W/m² 6,4 km/h (2 Bft) 97,87 %
11.02.2026 11:44 10,1 °C 10,0 °C 6,7 °C 100 % 984,9 hPa 0,0 l/m² 0 min 0 min 49 W/m² 12,9 km/h (3 Bft) 97,87 %
11.02.2026 11:46 10,1 °C 10,0 °C 6,1 °C 100 % 984,9 hPa 0,0 l/m² 0 min 0 min 40 W/m² 12,9 km/h (3 Bft) 95,74 %
11.02.2026 11:48 10,1 °C 10,0 °C 6,1 °C 100 % 984,9 hPa 0,0 l/m² 0 min 0 min 40 W/m² 6,4 km/h (2 Bft) 97,87 %
11.02.2026 11:50 10,1 °C 10,0 °C 6,1 °C 100 % 984,9 hPa 0,0 l/m² 0 min 0 min 42 W/m² 6,4 km/h (2 Bft) 95,65 %
11.02.2026 11:52 10,1 °C 10,0 °C 6,1 °C 100 % 984,9 hPa 0,0 l/m² 0 min 0 min 46 W/m² 6,4 km/h (2 Bft) 97,87 %
11.02.2026 11:54 10,1 °C 10,0 °C 6,1 °C 100 % 984,9 hPa 0,0 l/m² 0 min 0 min 59 W/m² 6,4 km/h (2 Bft) 97,37 %
11.02.2026 11:56 10,1 °C 10,0 °C 6,1 °C 100 % 984,9 hPa 0,0 l/m² 0 min 0 min 70 W/m² 9,7 km/h (2 Bft) 97,87 %
11.02.2026 11:58 10,1 °C 10,0 °C 6,7 °C 100 % 984,8 hPa 0,0 l/m² 0 min 0 min 74 W/m² 12,9 km/h (3 Bft) 97,87 %
11.02.2026 12:00 10,1 °C 10,0 °C 6,7 °C 100 % 984,9 hPa 0,0 l/m² 0 min 0 min 77 W/m² 6,4 km/h (2 Bft) 95,74 %
11.02.2026 12:02 10,1 °C 10,0 °C 6,7 °C 100 % 984,9 hPa 0,0 l/m² 0 min 0 min 78 W/m² 3,2 km/h (1 Bft) 94,92 %
11.02.2026 12:04 10,2 °C 10,0 °C 6,7 °C 100 % 984,9 hPa 0,0 l/m² 0 min 0 min 83 W/m² 6,4 km/h (2 Bft) 100,00 %
11.02.2026 12:07 10,2 °C 10,0 °C 6,7 °C 100 % 984,9 hPa 0,0 l/m² 0 min 0 min 78 W/m² 6,4 km/h (2 Bft) 97,14 %
11.02.2026 12:08 10,2 °C 10,0 °C 6,7 °C 100 % 984,9 hPa 0,0 l/m² 0 min 0 min 77 W/m² 6,4 km/h (2 Bft) 91,67 %
11.02.2026 12:12 10,2 °C 10,0 °C 6,7 °C 100 % 984,8 hPa 0,0 l/m² 0 min 0 min 77 W/m² 6,4 km/h (2 Bft) 96,36 %
11.02.2026 12:14 10,2 °C 10,0 °C 6,7 °C 100 % 984,9 hPa 0,0 l/m² 0 min 0 min 79 W/m² 16,1 km/h (3 Bft) 95,74 %
11.02.2026 12:16 10,2 °C 10,0 °C 6,7 °C 100 % 984,9 hPa 0,0 l/m² 0 min 0 min 70 W/m² 12,9 km/h (3 Bft) 95,74 %
11.02.2026 12:18 10,2 °C 10,0 °C 6,7 °C 100 % 984,8 hPa 0,0 l/m² 0 min 0 min 72 W/m² 16,1 km/h (3 Bft) 95,74 %
11.02.2026 12:20 10,3 °C 10,6 °C 6,7 °C 100 % 984,9 hPa 0,0 l/m² 0 min 0 min 88 W/m² 16,1 km/h (3 Bft) 95,74 %
11.02.2026 12:22 10,3 °C 10,6 °C 6,7 °C 100 % 984,9 hPa 0,0 l/m² 0 min 0 min 87 W/m² 12,9 km/h (3 Bft) 95,65 %
11.02.2026 12:24 10,3 °C 10,6 °C 6,7 °C 100 % 984,9 hPa 0,0 l/m² 0 min 0 min 75 W/m² 6,4 km/h (2 Bft) 95,74 %
11.02.2026 12:26 10,3 °C 10,6 °C 6,7 °C 100 % 984,8 hPa 0,0 l/m² 0 min 0 min 96 W/m² 16,1 km/h (3 Bft) 97,87 %
11.02.2026 12:28 10,3 °C 10,6 °C 6,7 °C 100 % 984,8 hPa 0,0 l/m² 0 min 0 min 108 W/m² 12,9 km/h (3 Bft) 97,87 %
11.02.2026 12:30 10,4 °C 10,6 °C 6,7 °C 100 % 984,9 hPa 0,0 l/m² 0 min 0 min 99 W/m² 16,1 km/h (3 Bft) 97,87 %
11.02.2026 12:32 10,4 °C 10,6 °C 6,7 °C 100 % 984,9 hPa 0,0 l/m² 0 min 0 min 104 W/m² 12,9 km/h (3 Bft) 95,74 %
11.02.2026 12:34 10,4 °C 10,6 °C 6,7 °C 100 % 984,8 hPa 0,0 l/m² 0 min 0 min 106 W/m² 16,1 km/h (3 Bft) 100,00 %
11.02.2026 12:36 10,4 °C 10,6 °C 6,7 °C 100 % 984,8 hPa 0,0 l/m² 0 min 0 min 99 W/m² 12,9 km/h (3 Bft) 93,62 %
11.02.2026 12:38 10,4 °C 10,6 °C 6,7 °C 100 % 984,8 hPa 0,0 l/m² 0 min 0 min 93 W/m² 16,1 km/h (3 Bft) 97,87 %
11.02.2026 12:40 10,4 °C 10,6 °C 6,7 °C 100 % 984,8 hPa 0,0 l/m² 0 min 0 min 81 W/m² 12,9 km/h (3 Bft) 97,87 %
11.02.2026 12:42 10,4 °C 10,6 °C 6,7 °C 100 % 984,9 hPa 0,0 l/m² 0 min 0 min 73 W/m² 12,9 km/h (3 Bft) 97,87 %
11.02.2026 12:44 10,4 °C 10,6 °C 6,7 °C 99 % 984,8 hPa 0,0 l/m² 0 min 0 min 99 W/m² 12,9 km/h (3 Bft) 100,00 %
11.02.2026 12:46 10,4 °C 10,6 °C 6,7 °C 99 % 984,8 hPa 0,0 l/m² 0 min 0 min 112 W/m² 16,1 km/h (3 Bft) 97,87 %
11.02.2026 12:48 10,4 °C 10,6 °C 6,7 °C 99 % 984,8 hPa 0,0 l/m² 0 min 0 min 145 W/m² 9,7 km/h (2 Bft) 97,83 %
11.02.2026 12:50 10,5 °C 10,6 °C 6,7 °C 99 % 984,9 hPa 0,0 l/m² 0 min 0 min 174 W/m² 6,4 km/h (2 Bft) 97,87 %
11.02.2026 12:52 10,5 °C 11,1 °C 6,7 °C 99 % 984,9 hPa 0,0 l/m² 0 min 0 min 167 W/m² 12,9 km/h (3 Bft) 95,74 %
11.02.2026 12:54 10,6 °C 11,1 °C 7,2 °C 99 % 984,9 hPa 0,0 l/m² 0 min 0 min 170 W/m² 3,2 km/h (1 Bft) 95,74 %
11.02.2026 12:56 10,6 °C 11,7 °C 7,2 °C 100 % 984,9 hPa 0,0 l/m² 0 min 0 min 171 W/m² 6,4 km/h (2 Bft) 97,87 %
11.02.2026 12:58 10,7 °C 11,7 °C 7,2 °C 100 % 984,9 hPa 0,0 l/m² 0 min 0 min 168 W/m² 9,7 km/h (2 Bft) 95,74 %
11.02.2026 13:00 10,7 °C 11,7 °C 7,2 °C 100 % 984,9 hPa 0,0 l/m² 0 min 0 min 154 W/m² 6,4 km/h (2 Bft) 97,87 %
11.02.2026 13:02 10,7 °C 11,1 °C 7,2 °C 99 % 984,9 hPa 0,0 l/m² 0 min 0 min 137 W/m² 6,4 km/h (2 Bft) 93,62 %
11.02.2026 13:04 10,7 °C 11,1 °C 7,2 °C 99 % 984,9 hPa 0,0 l/m² 0 min 0 min 116 W/m² 12,9 km/h (3 Bft) 97,56 %
11.02.2026 13:06 10,7 °C 11,1 °C 6,7 °C 99 % 984,8 hPa 0,0 l/m² 0 min 0 min 106 W/m² 22,5 km/h (4 Bft) 95,74 %
11.02.2026 13:08 10,7 °C 11,1 °C 6,7 °C 99 % 984,8 hPa 0,0 l/m² 0 min 0 min 94 W/m² 16,1 km/h (3 Bft) 98,15 %
11.02.2026 13:10 10,6 °C 11,1 °C 6,7 °C 99 % 984,8 hPa 0,0 l/m² 0 min 0 min 113 W/m² 16,1 km/h (3 Bft) 95,74 %
11.02.2026 13:12 10,6 °C 11,1 °C 6,7 °C 99 % 984,8 hPa 0,0 l/m² 0 min 0 min 142 W/m² 12,9 km/h (3 Bft) 93,48 %
11.02.2026 13:14 10,7 °C 11,1 °C 6,7 °C 99 % 984,8 hPa 0,0 l/m² 0 min 0 min 138 W/m² 16,1 km/h (3 Bft) 97,87 %
11.02.2026 13:16 10,7 °C 11,1 °C 6,7 °C 99 % 984,8 hPa 0,0 l/m² 0 min 0 min 121 W/m² 19,3 km/h (3 Bft) 97,87 %
11.02.2026 13:18 10,7 °C 11,1 °C 6,7 °C 99 % 984,7 hPa 0,0 l/m² 0 min 0 min 115 W/m² 9,7 km/h (2 Bft) 97,87 %
11.02.2026 13:20 10,7 °C 11,1 °C 6,7 °C 99 % 984,8 hPa 0,0 l/m² 0 min 0 min 109 W/m² 9,7 km/h (2 Bft) 95,74 %
11.02.2026 13:22 10,8 °C 11,1 °C 7,2 °C 99 % 984,8 hPa 0,0 l/m² 0 min 0 min 127 W/m² 9,7 km/h (2 Bft) 97,87 %
11.02.2026 13:24 10,8 °C 11,1 °C 7,2 °C 99 % 984,7 hPa 0,0 l/m² 0 min 0 min 121 W/m² 12,9 km/h (3 Bft) 97,87 %
11.02.2026 13:26 10,8 °C 11,1 °C 7,2 °C 99 % 984,7 hPa 0,0 l/m² 0 min 0 min 106 W/m² 16,1 km/h (3 Bft) 97,87 %
11.02.2026 13:28 10,8 °C 11,1 °C 7,2 °C 99 % 984,7 hPa 0,0 l/m² 0 min 0 min 78 W/m² 16,1 km/h (3 Bft) 95,74 %
11.02.2026 13:30 10,9 °C 11,1 °C 6,7 °C 99 % 984,7 hPa 0,0 l/m² 0 min 0 min 50 W/m² 12,9 km/h (3 Bft) 95,74 %
11.02.2026 13:32 10,9 °C 11,1 °C 6,7 °C 99 % 984,7 hPa 0,0 l/m² 0 min 0 min 43 W/m² 12,9 km/h (3 Bft) 93,62 %
11.02.2026 13:34 10,9 °C 11,1 °C 6,7 °C 99 % 984,7 hPa 0,0 l/m² 0 min 0 min 45 W/m² 12,9 km/h (3 Bft) 100,00 %
11.02.2026 13:36 10,9 °C 11,1 °C 6,7 °C 99 % 984,8 hPa 0,0 l/m² 0 min 0 min 62 W/m² 6,4 km/h (2 Bft) 97,87 %
11.02.2026 13:38 10,9 °C 11,1 °C 7,2 °C 99 % 984,8 hPa 0,0 l/m² 0 min 0 min 80 W/m² 12,9 km/h (3 Bft) 97,87 %
11.02.2026 13:40 10,9 °C 11,1 °C 6,7 °C 99 % 984,8 hPa 0,0 l/m² 0 min 0 min 89 W/m² 19,3 km/h (3 Bft) 100,00 %
11.02.2026 13:42 10,9 °C 11,1 °C 6,7 °C 99 % 984,7 hPa 0,0 l/m² 0 min 0 min 82 W/m² 12,9 km/h (3 Bft) 97,87 %
11.02.2026 13:44 11,0 °C 11,1 °C 7,2 °C 98 % 984,8 hPa 0,0 l/m² 0 min 0 min 74 W/m² 6,4 km/h (2 Bft) 100,00 %
11.02.2026 13:46 11,0 °C 11,1 °C 6,7 °C 98 % 984,8 hPa 0,0 l/m² 0 min 0 min 79 W/m² 12,9 km/h (3 Bft) 100,00 %
11.02.2026 13:48 11,0 °C 11,1 °C 6,7 °C 98 % 984,7 hPa 0,0 l/m² 0 min 0 min 91 W/m² 16,1 km/h (3 Bft) 100,00 %
11.02.2026 13:50 10,9 °C 11,1 °C 6,7 °C 98 % 984,7 hPa 0,0 l/m² 0 min 0 min 112 W/m² 25,7 km/h (4 Bft) 97,87 %
11.02.2026 13:52 11,0 °C 11,1 °C 6,7 °C 98 % 984,7 hPa 0,0 l/m² 0 min 0 min 133 W/m² 12,9 km/h (3 Bft) 100,00 %
11.02.2026 13:54 11,0 °C 11,7 °C 6,7 °C 98 % 984,8 hPa 0,0 l/m² 0 min 2 min 141 W/m² 12,9 km/h (3 Bft) 100,00 %
11.02.2026 13:56 11,1 °C 11,7 °C 7,2 °C 98 % 984,8 hPa 0,0 l/m² 0 min 2 min 125 W/m² 12,9 km/h (3 Bft) 97,14 %
11.02.2026 13:58 11,1 °C 11,7 °C 7,2 °C 98 % 984,8 hPa 0,0 l/m² 0 min 2 min 137 W/m² 19,3 km/h (3 Bft) 97,87 %
11.02.2026 14:00 11,1 °C 11,7 °C 7,2 °C 98 % 984,7 hPa 0,0 l/m² 0 min 0 min 141 W/m² 19,3 km/h (3 Bft) 100,00 %
11.02.2026 14:02 11,1 °C 11,7 °C 7,2 °C 98 % 984,7 hPa 0,0 l/m² 0 min 0 min 131 W/m² 12,9 km/h (3 Bft) 100,00 %
11.02.2026 14:04 11,1 °C 11,7 °C 7,2 °C 98 % 984,8 hPa 0,0 l/m² 0 min 0 min 122 W/m² 12,9 km/h (3 Bft) 100,00 %
11.02.2026 14:06 11,1 °C 11,7 °C 7,2 °C 97 % 984,8 hPa 0,0 l/m² 0 min 0 min 106 W/m² 19,3 km/h (3 Bft) 94,92 %
11.02.2026 14:08 11,1 °C 11,1 °C 6,7 °C 97 % 984,8 hPa 0,0 l/m² 0 min 0 min 108 W/m² 16,1 km/h (3 Bft) 98,11 %
11.02.2026 14:10 11,2 °C 11,7 °C 7,2 °C 97 % 984,8 hPa 0,0 l/m² 0 min 0 min 131 W/m² 12,9 km/h (3 Bft) 97,14 %
11.02.2026 14:12 11,2 °C 11,7 °C 7,2 °C 97 % 984,8 hPa 0,0 l/m² 0 min 0 min 156 W/m² 19,3 km/h (3 Bft) 97,87 %
11.02.2026 14:14 11,2 °C 11,7 °C 7,2 °C 97 % 984,8 hPa 0,0 l/m² 0 min 0 min 172 W/m² 16,1 km/h (3 Bft) 95,74 %
11.02.2026 14:16 11,2 °C 11,7 °C 7,2 °C 97 % 984,8 hPa 0,0 l/m² 0 min 0 min 168 W/m² 19,3 km/h (3 Bft) 93,62 %
11.02.2026 14:18 11,3 °C 11,7 °C 7,2 °C 97 % 984,8 hPa 0,0 l/m² 0 min 0 min 158 W/m² 12,9 km/h (3 Bft) 95,74 %
11.02.2026 14:20 11,3 °C 11,7 °C 7,2 °C 97 % 984,8 hPa 0,0 l/m² 0 min 0 min 147 W/m² 12,9 km/h (3 Bft) 95,74 %
11.02.2026 14:22 11,3 °C 12,2 °C 7,2 °C 97 % 984,7 hPa 0,0 l/m² 0 min 0 min 166 W/m² 6,4 km/h (2 Bft) 91,49 %
11.02.2026 14:24 11,3 °C 12,2 °C 7,2 °C 96 % 984,7 hPa 0,0 l/m² 0 min 0 min 164 W/m² 16,1 km/h (3 Bft) 95,74 %
11.02.2026 14:26 11,4 °C 11,7 °C 7,2 °C 96 % 984,7 hPa 0,0 l/m² 0 min 0 min 142 W/m² 12,9 km/h (3 Bft) 91,49 %
11.02.2026 14:28 11,4 °C 11,7 °C 7,2 °C 96 % 984,7 hPa 0,0 l/m² 0 min 0 min 106 W/m² 12,9 km/h (3 Bft) 95,74 %
11.02.2026 14:30 11,4 °C 11,7 °C 7,2 °C 96 % 984,7 hPa 0,0 l/m² 0 min 0 min 102 W/m² 12,9 km/h (3 Bft) 93,62 %
11.02.2026 14:32 11,4 °C 11,7 °C 7,2 °C 96 % 984,7 hPa 0,0 l/m² 0 min 0 min 108 W/m² 9,7 km/h (2 Bft) 95,74 %
11.02.2026 14:34 11,4 °C 11,7 °C 7,2 °C 96 % 984,7 hPa 0,0 l/m² 0 min 0 min 110 W/m² 6,4 km/h (2 Bft) 95,65 %
11.02.2026 14:36 11,5 °C 11,7 °C 7,2 °C 96 % 984,7 hPa 0,2 l/m² 0 min 2 min 126 W/m² 12,9 km/h (3 Bft) 93,62 %
11.02.2026 14:38 11,5 °C 11,7 °C 7,2 °C 96 % 984,7 hPa 0,0 l/m² 0 min 2 min 130 W/m² 16,1 km/h (3 Bft) 95,74 %
11.02.2026 14:40 11,5 °C 11,7 °C 7,2 °C 96 % 984,6 hPa 0,0 l/m² 0 min 0 min 150 W/m² 16,1 km/h (3 Bft) 97,87 %
11.02.2026 14:42 11,5 °C 12,2 °C 7,2 °C 96 % 984,6 hPa 0,0 l/m² 2 min 0 min 188 W/m² 9,7 km/h (2 Bft) 97,87 %
11.02.2026 14:44 11,6 °C 12,2 °C 7,8 °C 96 % 984,5 hPa 0,0 l/m² 0 min 0 min 172 W/m² 12,9 km/h (3 Bft) 97,87 %
11.02.2026 14:46 11,6 °C 12,2 °C 7,8 °C 96 % 984,5 hPa 0,0 l/m² 0 min 0 min 167 W/m² 9,7 km/h (2 Bft) 95,74 %
11.02.2026 14:48 11,6 °C 12,2 °C 7,8 °C 96 % 984,4 hPa 0,0 l/m² 2 min 0 min 186 W/m² 16,1 km/h (3 Bft) 100,00 %
11.02.2026 14:50 11,6 °C 12,2 °C 7,8 °C 96 % 984,4 hPa 0,0 l/m² 2 min 0 min 185 W/m² 12,9 km/h (3 Bft) 97,87 %
11.02.2026 14:52 11,6 °C 12,2 °C 7,8 °C 95 % 984,5 hPa 0,0 l/m² 2 min 0 min 195 W/m² 16,1 km/h (3 Bft) 93,62 %
11.02.2026 14:54 11,6 °C 12,2 °C 7,8 °C 95 % 984,5 hPa 0,0 l/m² 2 min 0 min 196 W/m² 16,1 km/h (3 Bft) 95,74 %
11.02.2026 14:56 11,6 °C 12,2 °C 7,8 °C 95 % 984,5 hPa 0,0 l/m² 2 min 0 min 191 W/m² 12,9 km/h (3 Bft) 97,87 %
11.02.2026 14:58 11,6 °C 12,2 °C 7,8 °C 95 % 984,5 hPa 0,0 l/m² 2 min 0 min 165 W/m² 12,9 km/h (3 Bft) 97,83 %
11.02.2026 15:00 11,6 °C 12,2 °C 7,8 °C 95 % 984,6 hPa 0,0 l/m² 0 min 0 min 136 W/m² 12,9 km/h (3 Bft) 97,87 %
11.02.2026 15:02 11,7 °C 12,2 °C 7,8 °C 95 % 984,6 hPa 0,0 l/m² 0 min 0 min 129 W/m² 12,9 km/h (3 Bft) 97,87 %
11.02.2026 15:04 11,6 °C 11,7 °C 7,8 °C 95 % 984,6 hPa 0,0 l/m² 0 min 0 min 120 W/m² 19,3 km/h (3 Bft) 97,62 %
11.02.2026 15:06 11,6 °C 11,7 °C 7,8 °C 95 % 984,6 hPa 0,0 l/m² 0 min 0 min 96 W/m² 12,9 km/h (3 Bft) 97,87 %
11.02.2026 15:08 11,6 °C 11,7 °C 7,8 °C 95 % 984,6 hPa 0,0 l/m² 0 min 0 min 80 W/m² 12,9 km/h (3 Bft) 98,11 %
11.02.2026 15:10 11,6 °C 11,7 °C 7,8 °C 95 % 984,6 hPa 0,0 l/m² 0 min 0 min 75 W/m² 9,7 km/h (2 Bft) 100,00 %
11.02.2026 15:12 11,6 °C 11,7 °C 7,8 °C 95 % 984,6 hPa 0,0 l/m² 0 min 0 min 83 W/m² 12,9 km/h (3 Bft) 97,87 %
11.02.2026 15:14 11,6 °C 11,7 °C 7,8 °C 95 % 984,6 hPa 0,0 l/m² 0 min 0 min 98 W/m² 6,4 km/h (2 Bft) 100,00 %
11.02.2026 15:16 11,6 °C 11,7 °C 7,8 °C 95 % 984,6 hPa 0,0 l/m² 0 min 0 min 104 W/m² 12,9 km/h (3 Bft) 100,00 %
11.02.2026 15:18 11,6 °C 11,7 °C 7,8 °C 95 % 984,6 hPa 0,0 l/m² 0 min 0 min 106 W/m² 12,9 km/h (3 Bft) 97,87 %
11.02.2026 15:20 11,6 °C 11,7 °C 7,8 °C 95 % 984,6 hPa 0,0 l/m² 0 min 0 min 105 W/m² 12,9 km/h (3 Bft) 100,00 %
11.02.2026 15:22 11,6 °C 11,7 °C 7,8 °C 95 % 984,6 hPa 0,0 l/m² 0 min 0 min 96 W/m² 16,1 km/h (3 Bft) 97,87 %
11.02.2026 15:24 11,6 °C 11,7 °C 7,8 °C 95 % 984,6 hPa 0,0 l/m² 0 min 0 min 79 W/m² 6,4 km/h (2 Bft) 100,00 %
11.02.2026 15:26 11,6 °C 11,7 °C 7,8 °C 95 % 984,5 hPa 0,0 l/m² 0 min 0 min 62 W/m² 19,3 km/h (3 Bft) 97,87 %
11.02.2026 15:28 11,6 °C 11,7 °C 7,8 °C 95 % 984,6 hPa 0,0 l/m² 0 min 0 min 55 W/m² 12,9 km/h (3 Bft) 97,87 %
11.02.2026 15:30 11,6 °C 11,1 °C 7,2 °C 95 % 984,5 hPa 0,0 l/m² 0 min 0 min 48 W/m² 12,9 km/h (3 Bft) 95,74 %
11.02.2026 15:32 11,6 °C 11,1 °C 7,2 °C 95 % 984,6 hPa 0,0 l/m² 0 min 0 min 44 W/m² 16,1 km/h (3 Bft) 97,87 %
11.02.2026 15:34 11,6 °C 11,1 °C 7,2 °C 95 % 984,5 hPa 0,0 l/m² 0 min 0 min 38 W/m² 16,1 km/h (3 Bft) 100,00 %
11.02.2026 15:36 11,6 °C 11,1 °C 7,2 °C 94 % 984,5 hPa 0,0 l/m² 0 min 0 min 24 W/m² 16,1 km/h (3 Bft) 97,87 %
11.02.2026 15:38 11,6 °C 11,1 °C 7,2 °C 94 % 984,5 hPa 0,0 l/m² 0 min 0 min 21 W/m² 12,9 km/h (3 Bft) 97,87 %
11.02.2026 15:40 11,6 °C 11,1 °C 7,2 °C 94 % 984,5 hPa 0,0 l/m² 0 min 0 min 23 W/m² 6,4 km/h (2 Bft) 95,74 %
11.02.2026 15:42 11,6 °C 11,1 °C 7,2 °C 94 % 984,5 hPa 0,0 l/m² 0 min 0 min 37 W/m² 6,4 km/h (2 Bft) 97,83 %
11.02.2026 15:44 11,6 °C 11,1 °C 7,2 °C 95 % 984,5 hPa 0,0 l/m² 0 min 0 min 41 W/m² 16,1 km/h (3 Bft) 100,00 %
11.02.2026 15:46 11,5 °C 10,6 °C 7,2 °C 94 % 984,5 hPa 0,0 l/m² 0 min 0 min 43 W/m² 16,1 km/h (3 Bft) 97,87 %
11.02.2026 15:48 11,5 °C 10,6 °C 7,2 °C 94 % 984,5 hPa 0,0 l/m² 0 min 0 min 50 W/m² 12,9 km/h (3 Bft) 95,74 %
11.02.2026 15:50 11,5 °C 10,6 °C 7,2 °C 94 % 984,5 hPa 0,0 l/m² 0 min 0 min 25 W/m² 9,7 km/h (2 Bft) 97,87 %
11.02.2026 15:52 11,4 °C 10,6 °C 7,2 °C 95 % 984,5 hPa 0,0 l/m² 0 min 2 min 19 W/m² 16,1 km/h (3 Bft) 95,74 %
11.02.2026 15:54 11,4 °C 10,6 °C 6,7 °C 95 % 984,5 hPa 0,0 l/m² 0 min 2 min 22 W/m² 9,7 km/h (2 Bft) 97,87 %
11.02.2026 15:56 11,4 °C 10,6 °C 6,7 °C 95 % 984,5 hPa 0,0 l/m² 0 min 2 min 25 W/m² 16,1 km/h (3 Bft) 97,87 %
11.02.2026 15:58 11,4 °C 10,6 °C 6,7 °C 95 % 984,5 hPa 0,0 l/m² 0 min 2 min 27 W/m² 16,1 km/h (3 Bft) 95,74 %
11.02.2026 16:00 11,3 °C 10,0 °C 6,7 °C 95 % 984,5 hPa 0,0 l/m² 0 min 2 min 32 W/m² 16,1 km/h (3 Bft) 97,87 %
11.02.2026 16:02 11,3 °C 10,0 °C 6,7 °C 95 % 984,5 hPa 0,0 l/m² 0 min 0 min 34 W/m² 12,9 km/h (3 Bft) 95,65 %
11.02.2026 16:04 11,3 °C 10,0 °C 6,7 °C 95 % 984,5 hPa 0,0 l/m² 0 min 0 min 29 W/m² 16,1 km/h (3 Bft) 97,62 %
11.02.2026 16:06 11,2 °C 10,0 °C 6,7 °C 95 % 984,5 hPa 0,0 l/m² 0 min 0 min 26 W/m² 19,3 km/h (3 Bft) 95,74 %
11.02.2026 16:08 11,2 °C 10,0 °C 6,7 °C 95 % 984,5 hPa 0,2 l/m² 0 min 2 min 31 W/m² 9,7 km/h (2 Bft) 94,34 %
11.02.2026 16:10 11,2 °C 10,0 °C 6,7 °C 95 % 984,5 hPa 0,0 l/m² 0 min 2 min 34 W/m² 25,7 km/h (4 Bft) 95,74 %
11.02.2026 16:12 11,1 °C 10,0 °C 6,7 °C 95 % 984,5 hPa 0,0 l/m² 0 min 2 min 38 W/m² 16,1 km/h (3 Bft) 93,62 %
11.02.2026 16:14 11,1 °C 10,0 °C 6,7 °C 96 % 984,5 hPa 0,0 l/m² 0 min 2 min 31 W/m² 16,1 km/h (3 Bft) 95,74 %
11.02.2026 16:16 11,1 °C 10,0 °C 6,7 °C 96 % 984,5 hPa 0,0 l/m² 0 min 2 min 20 W/m² 22,5 km/h (4 Bft) 89,36 %
11.02.2026 16:18 11,1 °C 10,0 °C 6,7 °C 96 % 984,6 hPa 0,2 l/m² 0 min 2 min 25 W/m² 12,9 km/h (3 Bft) 95,74 %
11.02.2026 16:20 11,0 °C 10,0 °C 6,7 °C 96 % 984,6 hPa 0,0 l/m² 0 min 0 min 26 W/m² 22,5 km/h (4 Bft) 93,62 %
11.02.2026 16:22 11,0 °C 10,0 °C 6,7 °C 96 % 984,7 hPa 0,0 l/m² 0 min 2 min 24 W/m² 9,7 km/h (2 Bft) 91,49 %
11.02.2026 16:24 10,9 °C 10,0 °C 6,7 °C 96 % 984,7 hPa 0,0 l/m² 0 min 2 min 18 W/m² 19,3 km/h (3 Bft) 95,65 %
11.02.2026 16:26 10,9 °C 10,0 °C 6,7 °C 96 % 984,6 hPa 0,2 l/m² 0 min 2 min 13 W/m² 12,9 km/h (3 Bft) 97,87 %
11.02.2026 16:28 10,9 °C 10,0 °C 6,7 °C 96 % 984,7 hPa 0,2 l/m² 0 min 2 min 12 W/m² 12,9 km/h (3 Bft) 97,87 %
11.02.2026 16:30 10,9 °C 10,0 °C 6,7 °C 96 % 984,6 hPa 0,0 l/m² 0 min 2 min 14 W/m² 6,4 km/h (2 Bft) 97,87 %
11.02.2026 16:32 10,9 °C 10,0 °C 6,7 °C 96 % 984,6 hPa 0,0 l/m² 0 min 2 min 16 W/m² 3,2 km/h (1 Bft) 95,74 %
11.02.2026 16:34 10,8 °C 10,0 °C 6,7 °C 96 % 984,6 hPa 0,0 l/m² 0 min 0 min 16 W/m² 6,4 km/h (2 Bft) 97,37 %
11.02.2026 16:36 10,8 °C 10,0 °C 6,7 °C 96 % 984,6 hPa 0,0 l/m² 0 min 0 min 14 W/m² 6,4 km/h (2 Bft) 100,00 %
11.02.2026 16:38 10,8 °C 10,0 °C 6,7 °C 97 % 984,6 hPa 0,0 l/m² 0 min 2 min 14 W/m² 9,7 km/h (2 Bft) 100,00 %
11.02.2026 16:40 10,8 °C 10,0 °C 6,7 °C 97 % 984,6 hPa 0,0 l/m² 0 min 2 min 14 W/m² 6,4 km/h (2 Bft) 97,96 %
11.02.2026 16:42 10,8 °C 10,0 °C 6,7 °C 96 % 984,6 hPa 0,0 l/m² 0 min 2 min 12 W/m² 9,7 km/h (2 Bft) 97,87 %
11.02.2026 16:44 10,8 °C 10,0 °C 6,7 °C 97 % 984,6 hPa 0,0 l/m² 0 min 2 min 12 W/m² 12,9 km/h (3 Bft) 100,00 %
11.02.2026 16:46 10,8 °C 10,0 °C 6,7 °C 97 % 984,6 hPa 0,2 l/m² 0 min 2 min 12 W/m² 6,4 km/h (2 Bft) 97,87 %
11.02.2026 16:48 10,7 °C 10,0 °C 6,7 °C 97 % 984,6 hPa 0,2 l/m² 0 min 2 min 16 W/m² 9,7 km/h (2 Bft) 100,00 %
11.02.2026 16:50 10,7 °C 10,0 °C 6,7 °C 97 % 984,6 hPa 0,0 l/m² 0 min 2 min 21 W/m² 9,7 km/h (2 Bft) 100,00 %
11.02.2026 16:52 10,7 °C 10,0 °C 6,7 °C 97 % 984,6 hPa 0,0 l/m² 0 min 2 min 20 W/m² 6,4 km/h (2 Bft) 97,87 %
11.02.2026 16:54 10,7 °C 10,0 °C 6,7 °C 97 % 984,6 hPa 0,0 l/m² 0 min 2 min 20 W/m² 12,9 km/h (3 Bft) 100,00 %
11.02.2026 16:56 10,7 °C 10,0 °C 6,7 °C 97 % 984,6 hPa 0,0 l/m² 0 min 0 min 19 W/m² 6,4 km/h (2 Bft) 100,00 %
11.02.2026 16:58 10,7 °C 10,0 °C 6,7 °C 97 % 984,5 hPa 0,0 l/m² 0 min 0 min 24 W/m² 12,9 km/h (3 Bft) 100,00 %
11.02.2026 17:00 10,7 °C 10,0 °C 6,7 °C 97 % 984,6 hPa 0,0 l/m² 0 min 0 min 28 W/m² 3,2 km/h (1 Bft) 97,87 %
11.02.2026 17:02 10,7 °C 10,0 °C 6,7 °C 97 % 984,6 hPa 0,0 l/m² 0 min 0 min 23 W/m² 9,7 km/h (2 Bft) 95,65 %
11.02.2026 17:04 10,7 °C 10,0 °C 6,7 °C 97 % 984,6 hPa 0,0 l/m² 0 min 0 min 16 W/m² 12,9 km/h (3 Bft) 100,00 %
11.02.2026 17:06 10,7 °C 10,0 °C 6,7 °C 97 % 984,5 hPa 0,0 l/m² 0 min 0 min 22 W/m² 6,4 km/h (2 Bft) 100,00 %
11.02.2026 17:08 10,7 °C 10,0 °C 6,7 °C 97 % 984,5 hPa 0,0 l/m² 0 min 0 min 20 W/m² 12,9 km/h (3 Bft) 100,00 %
11.02.2026 17:10 10,6 °C 10,0 °C 6,7 °C 97 % 984,5 hPa 0,0 l/m² 0 min 0 min 20 W/m² 12,9 km/h (3 Bft) 100,00 %
11.02.2026 17:12 10,6 °C 10,0 °C 6,7 °C 97 % 984,5 hPa 0,0 l/m² 0 min 0 min 21 W/m² 12,9 km/h (3 Bft) 95,74 %
11.02.2026 17:14 10,6 °C 10,0 °C 6,7 °C 97 % 984,4 hPa 0,0 l/m² 0 min 0 min 25 W/m² 16,1 km/h (3 Bft) 97,87 %
11.02.2026 17:16 10,6 °C 10,0 °C 6,7 °C 97 % 984,4 hPa 0,0 l/m² 0 min 2 min 24 W/m² 9,7 km/h (2 Bft) 97,87 %
11.02.2026 17:18 10,6 °C 10,0 °C 6,7 °C 97 % 984,4 hPa 0,0 l/m² 0 min 2 min 21 W/m² 9,7 km/h (2 Bft) 97,87 %
11.02.2026 17:20 10,6 °C 10,0 °C 6,1 °C 97 % 984,5 hPa 0,0 l/m² 2 min 2 min 22 W/m² 16,1 km/h (3 Bft) 95,74 %
11.02.2026 17:22 10,6 °C 10,0 °C 6,1 °C 97 % 984,5 hPa 0,2 l/m² 2 min 0 min 24 W/m² 12,9 km/h (3 Bft) 93,62 %
11.02.2026 17:24 10,6 °C 10,0 °C 6,1 °C 97 % 984,5 hPa 0,0 l/m² 2 min 0 min 20 W/m² 6,4 km/h (2 Bft) 97,87 %
11.02.2026 17:26 10,6 °C 10,0 °C 6,1 °C 97 % 984,5 hPa 0,0 l/m² 0 min 0 min 15 W/m² 9,7 km/h (2 Bft) 97,87 %
11.02.2026 17:28 10,6 °C 9,4 °C 6,1 °C 97 % 984,4 hPa 0,0 l/m² 0 min 0 min 9 W/m² 6,4 km/h (2 Bft) 97,87 %
11.02.2026 17:30 10,5 °C 9,4 °C 6,1 °C 97 % 984,4 hPa 0,0 l/m² 0 min 0 min 5 W/m² 6,4 km/h (2 Bft) 97,83 %
11.02.2026 17:32 10,5 °C 9,4 °C 6,1 °C 97 % 984,4 hPa 0,0 l/m² 0 min 2 min 0 W/m² 12,9 km/h (3 Bft) 97,87 %
11.02.2026 17:34 10,5 °C 9,4 °C 6,1 °C 97 % 984,5 hPa 0,0 l/m² 0 min 2 min 0 W/m² 12,9 km/h (3 Bft) 97,87 %
11.02.2026 17:36 10,5 °C 9,4 °C 6,1 °C 98 % 984,5 hPa 0,0 l/m² 0 min 0 min 0 W/m² 9,7 km/h (2 Bft) 97,87 %
11.02.2026 17:38 10,4 °C 9,4 °C 6,1 °C 98 % 984,5 hPa 0,0 l/m² 0 min 2 min 0 W/m² 12,9 km/h (3 Bft) 97,87 %
11.02.2026 17:40 10,4 °C 9,4 °C 6,1 °C 98 % 984,5 hPa 0,2 l/m² 0 min 2 min 0 W/m² 6,4 km/h (2 Bft) 97,87 %
11.02.2026 17:42 10,4 °C 9,4 °C 6,1 °C 98 % 984,5 hPa 0,0 l/m² 0 min 2 min 0 W/m² 16,1 km/h (3 Bft) 95,74 %
11.02.2026 17:44 10,4 °C 9,4 °C 6,1 °C 98 % 984,5 hPa 0,0 l/m² 0 min 2 min 0 W/m² 12,9 km/h (3 Bft) 95,74 %
11.02.2026 17:46 10,4 °C 9,4 °C 6,1 °C 98 % 984,4 hPa 0,0 l/m² 0 min 0 min 0 W/m² 16,1 km/h (3 Bft) 97,87 %
11.02.2026 17:48 10,4 °C 9,4 °C 6,1 °C 98 % 984,5 hPa 0,2 l/m² 0 min 0 min 0 W/m² 12,9 km/h (3 Bft) 97,87 %
11.02.2026 17:50 10,4 °C 9,4 °C 6,1 °C 98 % 984,5 hPa 0,0 l/m² 0 min 0 min 0 W/m² 16,1 km/h (3 Bft) 97,87 %
11.02.2026 17:52 10,4 °C 9,4 °C 6,1 °C 98 % 984,5 hPa 0,0 l/m² 0 min 0 min 0 W/m² 9,7 km/h (2 Bft) 95,65 %
11.02.2026 17:54 10,4 °C 9,4 °C 6,1 °C 98 % 984,5 hPa 0,0 l/m² 0 min 0 min 0 W/m² 12,9 km/h (3 Bft) 95,74 %
11.02.2026 17:56 10,4 °C 9,4 °C 6,1 °C 98 % 984,5 hPa 0,0 l/m² 0 min 0 min 0 W/m² 12,9 km/h (3 Bft) 93,62 %
11.02.2026 17:58 10,4 °C 9,4 °C 6,1 °C 98 % 984,4 hPa 0,0 l/m² 0 min 0 min 0 W/m² 12,9 km/h (3 Bft) 95,74 %
11.02.2026 18:00 10,4 °C 9,4 °C 6,1 °C 98 % 984,4 hPa 0,0 l/m² 0 min 0 min 0 W/m² 16,1 km/h (3 Bft) 97,87 %
11.02.2026 18:02 10,4 °C 9,4 °C 6,1 °C 98 % 984,5 hPa 0,0 l/m² 0 min 0 min 0 W/m² 19,3 km/h (3 Bft) 97,87 %
11.02.2026 18:04 10,4 °C 9,4 °C 6,1 °C 98 % 984,5 hPa 0,0 l/m² 0 min 0 min 0 W/m² 22,5 km/h (4 Bft) 95,92 %
11.02.2026 18:07 10,3 °C 9,4 °C 6,1 °C 98 % 984,5 hPa 0,0 l/m² 0 min 0 min 0 W/m² 9,7 km/h (2 Bft) 98,57 %
11.02.2026 18:08 10,3 °C 9,4 °C 6,1 °C 98 % 984,5 hPa 0,0 l/m² 0 min 0 min 0 W/m² 12,9 km/h (3 Bft) 95,83 %
11.02.2026 18:12 10,3 °C 9,4 °C 6,1 °C 98 % 984,5 hPa 0,0 l/m² 0 min 0 min 0 W/m² 19,3 km/h (3 Bft) 98,00 %
11.02.2026 18:14 10,3 °C 9,4 °C 6,1 °C 98 % 984,5 hPa 0,0 l/m² 0 min 0 min 0 W/m² 16,1 km/h (3 Bft) 95,65 %
11.02.2026 18:16 10,3 °C 9,4 °C 6,1 °C 98 % 984,6 hPa 0,0 l/m² 0 min 0 min 0 W/m² 19,3 km/h (3 Bft) 97,87 %
11.02.2026 18:18 10,3 °C 9,4 °C 6,1 °C 98 % 984,6 hPa 0,0 l/m² 0 min 0 min 0 W/m² 12,9 km/h (3 Bft) 97,87 %
11.02.2026 18:20 10,3 °C 9,4 °C 6,1 °C 98 % 984,6 hPa 0,0 l/m² 0 min 0 min 0 W/m² 16,1 km/h (3 Bft) 100,00 %
11.02.2026 18:22 10,3 °C 9,4 °C 6,1 °C 98 % 984,6 hPa 0,0 l/m² 0 min 0 min 0 W/m² 12,9 km/h (3 Bft) 95,74 %
11.02.2026 18:24 10,3 °C 9,4 °C 6,1 °C 98 % 984,6 hPa 0,0 l/m² 0 min 0 min 0 W/m² 12,9 km/h (3 Bft) 97,87 %
11.02.2026 18:26 10,2 °C 9,4 °C 6,1 °C 98 % 984,6 hPa 0,0 l/m² 0 min 0 min 0 W/m² 12,9 km/h (3 Bft) 95,74 %
11.02.2026 18:28 10,2 °C 9,4 °C 6,1 °C 98 % 984,6 hPa 0,0 l/m² 0 min 0 min 0 W/m² 22,5 km/h (4 Bft) 97,87 %
11.02.2026 18:30 10,2 °C 9,4 °C 6,1 °C 98 % 984,6 hPa 0,0 l/m² 0 min 0 min 0 W/m² 16,1 km/h (3 Bft) 100,00 %
11.02.2026 18:32 10,2 °C 9,4 °C 6,1 °C 98 % 984,6 hPa 0,0 l/m² 0 min 0 min 0 W/m² 12,9 km/h (3 Bft) 100,00 %
11.02.2026 18:34 10,2 °C 9,4 °C 6,1 °C 98 % 984,6 hPa 0,0 l/m² 0 min 0 min 0 W/m² 16,1 km/h (3 Bft) 97,87 %
11.02.2026 18:36 10,1 °C 9,4 °C 6,1 °C 98 % 984,6 hPa 0,0 l/m² 0 min 0 min 0 W/m² 16,1 km/h (3 Bft) 95,65 %
11.02.2026 18:38 10,1 °C 9,4 °C 6,1 °C 98 % 984,5 hPa 0,0 l/m² 0 min 0 min 0 W/m² 16,1 km/h (3 Bft) 95,74 %
11.02.2026 18:40 10,1 °C 9,4 °C 5,6 °C 98 % 984,5 hPa 0,0 l/m² 0 min 0 min 0 W/m² 22,5 km/h (4 Bft) 95,74 %
11.02.2026 18:42 10,0 °C 9,4 °C 5,6 °C 98 % 984,6 hPa 0,0 l/m² 0 min 0 min 0 W/m² 19,3 km/h (3 Bft) 95,74 %
11.02.2026 18:44 9,9 °C 9,4 °C 5,6 °C 98 % 984,5 hPa 0,0 l/m² 0 min 0 min 0 W/m² 12,9 km/h (3 Bft) 95,74 %
11.02.2026 18:46 9,9 °C 9,4 °C 5,6 °C 98 % 984,6 hPa 0,0 l/m² 0 min 0 min 0 W/m² 16,1 km/h (3 Bft) 97,87 %
11.02.2026 18:48 9,9 °C 9,4 °C 5,6 °C 98 % 984,5 hPa 0,0 l/m² 0 min 0 min 0 W/m² 29,0 km/h (5 Bft) 95,74 %
11.02.2026 18:50 9,9 °C 9,4 °C 5,6 °C 98 % 984,6 hPa 0,0 l/m² 0 min 0 min 0 W/m² 12,9 km/h (3 Bft) 97,87 %
11.02.2026 18:52 9,9 °C 9,4 °C 5,6 °C 98 % 984,6 hPa 0,0 l/m² 0 min 0 min 0 W/m² 16,1 km/h (3 Bft) 97,87 %
11.02.2026 18:54 9,9 °C 9,4 °C 5,6 °C 98 % 984,6 hPa 0,0 l/m² 0 min 0 min 0 W/m² 19,3 km/h (3 Bft) 97,87 %
11.02.2026 18:56 9,8 °C 9,4 °C 5,6 °C 97 % 984,6 hPa 0,0 l/m² 0 min 0 min 0 W/m² 12,9 km/h (3 Bft) 97,87 %
11.02.2026 18:58 9,8 °C 9,4 °C 5,6 °C 97 % 984,6 hPa 0,0 l/m² 0 min 0 min 0 W/m² 16,1 km/h (3 Bft) 95,74 %
11.02.2026 19:00 9,8 °C 9,4 °C 5,6 °C 97 % 984,7 hPa 0,0 l/m² 0 min 0 min 0 W/m² 16,1 km/h (3 Bft) 93,62 %
11.02.2026 19:02 9,8 °C 8,9 °C 5,6 °C 97 % 984,6 hPa 0,0 l/m² 0 min 0 min 0 W/m² 16,1 km/h (3 Bft) 97,83 %
11.02.2026 19:04 9,8 °C 8,9 °C 5,6 °C 97 % 984,6 hPa 0,0 l/m² 0 min 0 min 0 W/m² 12,9 km/h (3 Bft) 97,96 %
11.02.2026 19:06 9,8 °C 8,9 °C 5,6 °C 97 % 984,7 hPa 0,0 l/m² 0 min 0 min 0 W/m² 6,4 km/h (2 Bft) 93,62 %
11.02.2026 19:08 9,8 °C 8,9 °C 5,6 °C 97 % 984,7 hPa 0,0 l/m² 0 min 0 min 0 W/m² 16,1 km/h (3 Bft) 97,87 %
11.02.2026 19:10 9,8 °C 8,9 °C 5,6 °C 97 % 984,6 hPa 0,0 l/m² 0 min 0 min 0 W/m² 12,9 km/h (3 Bft) 97,87 %
11.02.2026 19:12 9,8 °C 8,9 °C 5,6 °C 97 % 984,6 hPa 0,0 l/m² 0 min 0 min 0 W/m² 16,1 km/h (3 Bft) 97,87 %
11.02.2026 19:14 9,7 °C 8,9 °C 5,6 °C 97 % 984,6 hPa 0,0 l/m² 0 min 0 min 0 W/m² 9,7 km/h (2 Bft) 97,87 %
11.02.2026 19:16 9,7 °C 8,9 °C 5,6 °C 97 % 984,6 hPa 0,0 l/m² 0 min 0 min 0 W/m² 6,4 km/h (2 Bft) 91,49 %
11.02.2026 19:18 9,7 °C 8,9 °C 5,6 °C 97 % 984,5 hPa 0,0 l/m² 0 min 0 min 0 W/m² 12,9 km/h (3 Bft) 97,87 %
11.02.2026 19:20 9,7 °C 8,9 °C 5,6 °C 97 % 984,5 hPa 0,0 l/m² 0 min 0 min 0 W/m² 12,9 km/h (3 Bft) 97,87 %
11.02.2026 19:22 9,7 °C 8,9 °C 5,6 °C 97 % 984,5 hPa 0,0 l/m² 0 min 0 min 0 W/m² 16,1 km/h (3 Bft) 97,83 %
11.02.2026 19:24 9,7 °C 8,9 °C 5,6 °C 97 % 984,5 hPa 0,0 l/m² 0 min 0 min 0 W/m² 12,9 km/h (3 Bft) 100,00 %
11.02.2026 19:26 9,6 °C 8,9 °C 5,6 °C 97 % 984,5 hPa 0,0 l/m² 0 min 0 min 0 W/m² 12,9 km/h (3 Bft) 100,00 %
11.02.2026 19:28 9,6 °C 8,9 °C 5,6 °C 97 % 984,5 hPa 0,0 l/m² 0 min 0 min 0 W/m² 12,9 km/h (3 Bft) 100,00 %
11.02.2026 19:30 9,6 °C 8,9 °C 5,6 °C 97 % 984,5 hPa 0,0 l/m² 0 min 0 min 0 W/m² 12,9 km/h (3 Bft) 100,00 %
11.02.2026 19:32 9,6 °C 8,9 °C 5,6 °C 97 % 984,6 hPa 0,0 l/m² 0 min 0 min 0 W/m² 12,9 km/h (3 Bft) 95,74 %
11.02.2026 19:34 9,6 °C 8,9 °C 5,6 °C 97 % 984,6 hPa 0,0 l/m² 0 min 0 min 0 W/m² 12,9 km/h (3 Bft) 97,87 %
11.02.2026 19:36 9,6 °C 8,9 °C 5,6 °C 97 % 984,5 hPa 0,0 l/m² 0 min 0 min 0 W/m² 25,7 km/h (4 Bft) 100,00 %
11.02.2026 19:38 9,6 °C 8,9 °C 5,6 °C 97 % 984,5 hPa 0,0 l/m² 0 min 0 min 0 W/m² 12,9 km/h (3 Bft) 97,87 %
11.02.2026 19:40 9,6 °C 8,9 °C 5,6 °C 97 % 984,5 hPa 0,0 l/m² 0 min 0 min 0 W/m² 16,1 km/h (3 Bft) 95,74 %
11.02.2026 19:42 9,6 °C 8,9 °C 5,6 °C 97 % 984,5 hPa 0,0 l/m² 0 min 0 min 0 W/m² 12,9 km/h (3 Bft) 100,00 %
11.02.2026 19:44 9,6 °C 8,9 °C 5,6 °C 97 % 984,4 hPa 0,0 l/m² 0 min 0 min 0 W/m² 9,7 km/h (2 Bft) 97,83 %
11.02.2026 19:46 9,6 °C 8,9 °C 5,6 °C 97 % 984,4 hPa 0,0 l/m² 0 min 0 min 0 W/m² 12,9 km/h (3 Bft) 97,87 %
11.02.2026 19:48 9,7 °C 8,9 °C 5,6 °C 97 % 984,4 hPa 0,0 l/m² 0 min 0 min 0 W/m² 22,5 km/h (4 Bft) 95,74 %
11.02.2026 19:50 9,6 °C 9,4 °C 5,0 °C 96 % 984,3 hPa 0,0 l/m² 0 min 0 min 0 W/m² 22,5 km/h (4 Bft) 91,49 %
11.02.2026 19:52 9,6 °C 9,4 °C 5,0 °C 96 % 984,3 hPa 0,0 l/m² 0 min 0 min 0 W/m² 19,3 km/h (3 Bft) 97,14 %
11.02.2026 19:54 9,7 °C 8,9 °C 5,0 °C 96 % 984,3 hPa 0,0 l/m² 0 min 0 min 0 W/m² 16,1 km/h (3 Bft) 94,64 %
11.02.2026 19:56 9,7 °C 8,9 °C 5,0 °C 96 % 984,3 hPa 0,0 l/m² 0 min 0 min 0 W/m² 12,9 km/h (3 Bft) 94,12 %
11.02.2026 19:58 9,6 °C 8,9 °C 5,0 °C 96 % 984,3 hPa 0,0 l/m² 0 min 0 min 0 W/m² 16,1 km/h (3 Bft) 95,45 %
11.02.2026 20:00 9,7 °C 8,9 °C 5,0 °C 96 % 984,3 hPa 0,0 l/m² 0 min 0 min 0 W/m² 16,1 km/h (3 Bft) 93,62 %
11.02.2026 20:02 9,6 °C 8,9 °C 5,0 °C 96 % 984,3 hPa 0,0 l/m² 0 min 0 min 0 W/m² 19,3 km/h (3 Bft) 95,74 %
11.02.2026 20:04 9,6 °C 8,9 °C 5,0 °C 96 % 984,2 hPa 0,0 l/m² 0 min 0 min 0 W/m² 16,1 km/h (3 Bft) 95,83 %
11.02.2026 20:06 9,6 °C 8,9 °C 5,0 °C 96 % 984,1 hPa 0,0 l/m² 0 min 0 min 0 W/m² 12,9 km/h (3 Bft) 95,74 %
11.02.2026 20:08 9,6 °C 8,9 °C 5,0 °C 96 % 984,1 hPa 0,0 l/m² 0 min 0 min 0 W/m² 16,1 km/h (3 Bft) 93,62 %
11.02.2026 20:10 9,6 °C 8,9 °C 5,0 °C 96 % 984,1 hPa 0,0 l/m² 0 min 0 min 0 W/m² 12,9 km/h (3 Bft) 95,65 %
11.02.2026 20:12 9,6 °C 8,9 °C 5,0 °C 96 % 984,1 hPa 0,0 l/m² 0 min 0 min 0 W/m² 12,9 km/h (3 Bft) 95,74 %
11.02.2026 20:14 9,6 °C 8,9 °C 5,0 °C 95 % 984,1 hPa 0,0 l/m² 0 min 0 min 0 W/m² 12,9 km/h (3 Bft) 95,74 %
11.02.2026 20:16 9,6 °C 8,9 °C 5,0 °C 95 % 984,1 hPa 0,0 l/m² 0 min 0 min 0 W/m² 12,9 km/h (3 Bft) 91,67 %
11.02.2026 20:18 9,6 °C 8,9 °C 5,0 °C 95 % 984,0 hPa 0,0 l/m² 0 min 0 min 0 W/m² 19,3 km/h (3 Bft) 97,83 %
11.02.2026 20:20 9,6 °C 8,9 °C 5,0 °C 95 % 984,1 hPa 0,0 l/m² 0 min 0 min 0 W/m² 9,7 km/h (2 Bft) 97,87 %
11.02.2026 20:22 9,6 °C 8,9 °C 5,0 °C 95 % 984,0 hPa 0,0 l/m² 0 min 0 min 0 W/m² 12,9 km/h (3 Bft) 97,87 %
11.02.2026 20:24 9,6 °C 8,9 °C 5,0 °C 95 % 984,0 hPa 0,0 l/m² 0 min 0 min 0 W/m² 9,7 km/h (2 Bft) 97,87 %
11.02.2026 20:26 9,5 °C 8,9 °C 5,0 °C 95 % 984,0 hPa 0,0 l/m² 0 min 0 min 0 W/m² 19,3 km/h (3 Bft) 97,87 %
11.02.2026 20:28 9,5 °C 8,9 °C 5,0 °C 95 % 984,0 hPa 0,0 l/m² 0 min 0 min 0 W/m² 9,7 km/h (2 Bft) 97,87 %
11.02.2026 20:30 9,5 °C 8,3 °C 5,0 °C 95 % 983,9 hPa 0,0 l/m² 0 min 0 min 0 W/m² 16,1 km/h (3 Bft) 100,00 %
11.02.2026 20:32 9,5 °C 8,3 °C 5,0 °C 95 % 984,0 hPa 0,0 l/m² 0 min 0 min 0 W/m² 16,1 km/h (3 Bft) 100,00 %
11.02.2026 20:34 9,5 °C 8,3 °C 5,0 °C 95 % 984,0 hPa 0,0 l/m² 0 min 0 min 0 W/m² 19,3 km/h (3 Bft) 97,87 %
11.02.2026 20:36 9,4 °C 8,3 °C 5,0 °C 95 % 983,9 hPa 0,0 l/m² 0 min 0 min 0 W/m² 16,1 km/h (3 Bft) 95,74 %
11.02.2026 20:38 9,4 °C 8,3 °C 5,0 °C 95 % 983,9 hPa 0,0 l/m² 0 min 0 min 0 W/m² 16,1 km/h (3 Bft) 100,00 %
11.02.2026 20:40 9,4 °C 8,3 °C 5,0 °C 95 % 983,9 hPa 0,0 l/m² 0 min 0 min 0 W/m² 16,1 km/h (3 Bft) 100,00 %
11.02.2026 20:42 9,4 °C 8,3 °C 5,0 °C 95 % 983,9 hPa 0,0 l/m² 0 min 0 min 0 W/m² 19,3 km/h (3 Bft) 100,00 %
11.02.2026 20:44 9,4 °C 8,3 °C 5,0 °C 95 % 983,9 hPa 0,0 l/m² 0 min 0 min 0 W/m² 16,1 km/h (3 Bft) 100,00 %
11.02.2026 20:46 9,4 °C 8,3 °C 5,0 °C 95 % 983,9 hPa 0,0 l/m² 0 min 0 min 0 W/m² 9,7 km/h (2 Bft) 100,00 %
11.02.2026 20:48 9,4 °C 8,3 °C 5,0 °C 95 % 983,9 hPa 0,0 l/m² 0 min 0 min 0 W/m² 12,9 km/h (3 Bft) 95,74 %
11.02.2026 20:50 9,3 °C 8,3 °C 5,0 °C 95 % 983,9 hPa 0,0 l/m² 0 min 0 min 0 W/m² 22,5 km/h (4 Bft) 100,00 %
11.02.2026 20:52 9,3 °C 8,3 °C 5,0 °C 95 % 983,9 hPa 0,0 l/m² 0 min 0 min 0 W/m² 19,3 km/h (3 Bft) 100,00 %
11.02.2026 20:54 9,3 °C 8,3 °C 5,0 °C 95 % 983,9 hPa 0,0 l/m² 0 min 0 min 0 W/m² 9,7 km/h (2 Bft) 97,87 %
11.02.2026 20:56 9,3 °C 8,3 °C 5,0 °C 95 % 983,8 hPa 0,0 l/m² 0 min 0 min 0 W/m² 12,9 km/h (3 Bft) 97,87 %
11.02.2026 20:58 9,3 °C 8,3 °C 5,0 °C 95 % 983,8 hPa 0,0 l/m² 0 min 0 min 0 W/m² 9,7 km/h (2 Bft) 100,00 %
11.02.2026 21:00 9,3 °C 8,3 °C 5,0 °C 95 % 983,8 hPa 0,0 l/m² 0 min 0 min 0 W/m² 16,1 km/h (3 Bft) 100,00 %
11.02.2026 21:02 9,3 °C 8,3 °C 5,0 °C 95 % 983,8 hPa 0,0 l/m² 0 min 0 min 0 W/m² 12,9 km/h (3 Bft) 97,87 %
11.02.2026 21:04 9,3 °C 8,3 °C 5,0 °C 95 % 983,8 hPa 0,0 l/m² 0 min 0 min 0 W/m² 12,9 km/h (3 Bft) 100,00 %
11.02.2026 21:06 9,3 °C 8,3 °C 5,0 °C 95 % 983,8 hPa 0,0 l/m² 0 min 0 min 0 W/m² 19,3 km/h (3 Bft) 100,00 %
11.02.2026 21:08 9,3 °C 8,3 °C 4,4 °C 95 % 983,8 hPa 0,0 l/m² 0 min 0 min 0 W/m² 12,9 km/h (3 Bft) 100,00 %
11.02.2026 21:10 9,2 °C 8,3 °C 4,4 °C 95 % 983,8 hPa 0,0 l/m² 0 min 0 min 0 W/m² 16,1 km/h (3 Bft) 100,00 %
11.02.2026 21:12 9,2 °C 8,3 °C 4,4 °C 95 % 983,8 hPa 0,0 l/m² 0 min 0 min 0 W/m² 12,9 km/h (3 Bft) 97,87 %
11.02.2026 21:14 9,2 °C 8,3 °C 4,4 °C 95 % 983,7 hPa 0,0 l/m² 0 min 0 min 0 W/m² 19,3 km/h (3 Bft) 100,00 %
11.02.2026 21:16 9,2 °C 8,3 °C 4,4 °C 95 % 983,8 hPa 0,0 l/m² 0 min 0 min 0 W/m² 19,3 km/h (3 Bft) 95,74 %
11.02.2026 21:18 9,2 °C 8,3 °C 4,4 °C 95 % 983,7 hPa 0,0 l/m² 0 min 0 min 0 W/m² 9,7 km/h (2 Bft) 97,87 %
11.02.2026 21:20 9,2 °C 8,3 °C 4,4 °C 95 % 983,7 hPa 0,0 l/m² 0 min 0 min 0 W/m² 16,1 km/h (3 Bft) 100,00 %
11.02.2026 21:22 9,2 °C 8,3 °C 4,4 °C 95 % 983,7 hPa 0,0 l/m² 0 min 0 min 0 W/m² 22,5 km/h (4 Bft) 100,00 %
11.02.2026 21:24 9,1 °C 8,3 °C 4,4 °C 95 % 983,7 hPa 0,0 l/m² 0 min 0 min 0 W/m² 25,7 km/h (4 Bft) 97,87 %
11.02.2026 21:26 9,1 °C 8,3 °C 4,4 °C 95 % 983,7 hPa 0,0 l/m² 0 min 0 min 0 W/m² 25,7 km/h (4 Bft) 100,00 %
11.02.2026 21:28 9,1 °C 8,3 °C 4,4 °C 95 % 983,7 hPa 0,0 l/m² 0 min 0 min 0 W/m² 19,3 km/h (3 Bft) 100,00 %
11.02.2026 21:30 9,1 °C 8,3 °C 4,4 °C 95 % 983,6 hPa 0,0 l/m² 0 min 0 min 0 W/m² 16,1 km/h (3 Bft) 100,00 %
11.02.2026 21:32 9,1 °C 8,3 °C 4,4 °C 95 % 983,6 hPa 0,0 l/m² 0 min 0 min 0 W/m² 19,3 km/h (3 Bft) 100,00 %
11.02.2026 21:34 9,1 °C 8,3 °C 4,4 °C 95 % 983,6 hPa 0,0 l/m² 0 min 0 min 0 W/m² 22,5 km/h (4 Bft) 100,00 %
11.02.2026 21:36 9,1 °C 8,3 °C 4,4 °C 95 % 983,6 hPa 0,0 l/m² 0 min 0 min 0 W/m² 19,3 km/h (3 Bft) 97,56 %
11.02.2026 21:38 9,1 °C 8,3 °C 5,0 °C 95 % 983,5 hPa 0,0 l/m² 0 min 0 min 0 W/m² 25,7 km/h (4 Bft) 95,74 %
11.02.2026 21:40 9,2 °C 8,3 °C 5,0 °C 95 % 983,5 hPa 0,0 l/m² 0 min 0 min 0 W/m² 19,3 km/h (3 Bft) 100,00 %
11.02.2026 21:42 9,2 °C 8,3 °C 5,0 °C 95 % 983,5 hPa 0,0 l/m² 0 min 0 min 0 W/m² 38,6 km/h (5 Bft) 98,11 %
11.02.2026 21:44 9,2 °C 8,3 °C 5,0 °C 95 % 983,5 hPa 0,0 l/m² 0 min 0 min 0 W/m² 29,0 km/h (5 Bft) 97,87 %
11.02.2026 21:46 9,2 °C 8,3 °C 5,0 °C 95 % 983,5 hPa 0,0 l/m² 0 min 0 min 0 W/m² 29,0 km/h (5 Bft) 95,74 %
11.02.2026 21:48 9,1 °C 7,8 °C 5,0 °C 95 % 983,6 hPa 0,0 l/m² 0 min 0 min 0 W/m² 29,0 km/h (5 Bft) 95,12 %
11.02.2026 21:50 9,1 °C 7,8 °C 4,4 °C 95 % 983,5 hPa 0,0 l/m² 0 min 0 min 0 W/m² 22,5 km/h (4 Bft) 95,74 %
11.02.2026 21:52 9,1 °C 7,8 °C 4,4 °C 95 % 983,4 hPa 0,0 l/m² 0 min 0 min 0 W/m² 12,9 km/h (3 Bft) 95,74 %
11.02.2026 21:54 9,1 °C 7,8 °C 4,4 °C 95 % 983,4 hPa 0,0 l/m² 0 min 0 min 0 W/m² 16,1 km/h (3 Bft) 94,23 %
11.02.2026 21:56 9,0 °C 7,8 °C 4,4 °C 95 % 983,4 hPa 0,0 l/m² 0 min 0 min 0 W/m² 19,3 km/h (3 Bft) 93,62 %
11.02.2026 21:58 8,9 °C 7,8 °C 4,4 °C 95 % 983,3 hPa 0,0 l/m² 0 min 0 min 0 W/m² 12,9 km/h (3 Bft) 95,12 %
11.02.2026 22:00 8,9 °C 8,3 °C 4,4 °C 95 % 983,3 hPa 0,0 l/m² 0 min 0 min 0 W/m² 22,5 km/h (4 Bft) 95,74 %
11.02.2026 22:02 8,9 °C 8,3 °C 4,4 °C 95 % 983,3 hPa 0,0 l/m² 0 min 0 min 0 W/m² 19,3 km/h (3 Bft) 92,45 %
11.02.2026 22:04 8,9 °C 8,3 °C 4,4 °C 95 % 983,2 hPa 0,0 l/m² 0 min 0 min 0 W/m² 12,9 km/h (3 Bft) 95,24 %
11.02.2026 22:06 8,9 °C 8,3 °C 4,4 °C 95 % 983,2 hPa 0,0 l/m² 0 min 0 min 0 W/m² 12,9 km/h (3 Bft) 93,62 %
11.02.2026 22:08 8,9 °C 8,3 °C 4,4 °C 95 % 983,2 hPa 0,0 l/m² 0 min 0 min 0 W/m² 12,9 km/h (3 Bft) 97,87 %
11.02.2026 22:10 8,9 °C 8,3 °C 4,4 °C 95 % 983,2 hPa 0,0 l/m² 0 min 0 min 0 W/m² 3,2 km/h (1 Bft) 95,74 %
11.02.2026 22:12 8,9 °C 8,3 °C 4,4 °C 95 % 983,1 hPa 0,0 l/m² 0 min 0 min 0 W/m² 9,7 km/h (2 Bft) 91,49 %
11.02.2026 22:14 8,9 °C 8,3 °C 4,4 °C 95 % 983,0 hPa 0,0 l/m² 0 min 0 min 0 W/m² 6,4 km/h (2 Bft) 95,74 %
11.02.2026 22:16 8,9 °C 8,3 °C 4,4 °C 95 % 983,0 hPa 0,0 l/m² 0 min 0 min 0 W/m² 6,4 km/h (2 Bft) 95,74 %
11.02.2026 22:18 8,9 °C 7,8 °C 4,4 °C 95 % 983,0 hPa 0,0 l/m² 0 min 0 min 0 W/m² 3,2 km/h (1 Bft) 95,65 %
11.02.2026 22:20 8,9 °C 7,8 °C 4,4 °C 95 % 982,8 hPa 0,0 l/m² 0 min 0 min 0 W/m² 6,4 km/h (2 Bft) 93,62 %
11.02.2026 22:22 8,8 °C 7,8 °C 4,4 °C 95 % 982,8 hPa 0,0 l/m² 0 min 0 min 0 W/m² 6,4 km/h (2 Bft) 95,74 %
11.02.2026 22:24 8,8 °C 7,8 °C 4,4 °C 95 % 982,7 hPa 0,0 l/m² 0 min 0 min 0 W/m² 6,4 km/h (2 Bft) 93,62 %
11.02.2026 22:26 8,8 °C 7,8 °C 4,4 °C 95 % 982,6 hPa 0,0 l/m² 0 min 0 min 0 W/m² 3,2 km/h (1 Bft) 93,62 %
11.02.2026 22:28 8,8 °C 7,8 °C 4,4 °C 95 % 982,6 hPa 0,0 l/m² 0 min 0 min 0 W/m² 3,2 km/h (1 Bft) 93,62 %
11.02.2026 22:30 8,8 °C 7,8 °C 4,4 °C 95 % 982,5 hPa 0,0 l/m² 0 min 0 min 0 W/m² 6,4 km/h (2 Bft) 95,74 %
11.02.2026 22:32 8,8 °C 7,8 °C 4,4 °C 95 % 982,5 hPa 0,0 l/m² 0 min 0 min 0 W/m² 3,2 km/h (1 Bft) 95,74 %
11.02.2026 22:34 8,8 °C 7,8 °C 4,4 °C 95 % 982,4 hPa 0,0 l/m² 0 min 0 min 0 W/m² 6,4 km/h (2 Bft) 95,74 %
11.02.2026 22:36 8,8 °C 7,8 °C 4,4 °C 95 % 982,4 hPa 0,0 l/m² 0 min 0 min 0 W/m² 6,4 km/h (2 Bft) 95,74 %
11.02.2026 22:38 8,8 °C 7,8 °C 4,4 °C 95 % 982,4 hPa 0,0 l/m² 0 min 0 min 0 W/m² 3,2 km/h (1 Bft) 95,74 %
11.02.2026 22:40 8,7 °C 7,8 °C 4,4 °C 95 % 982,4 hPa 0,0 l/m² 0 min 0 min 0 W/m² 6,4 km/h (2 Bft) 95,74 %
11.02.2026 22:42 8,7 °C 7,8 °C 4,4 °C 95 % 982,3 hPa 0,0 l/m² 0 min 0 min 0 W/m² 6,4 km/h (2 Bft) 95,74 %
11.02.2026 22:44 8,7 °C 7,2 °C 4,4 °C 95 % 982,3 hPa 0,0 l/m² 0 min 0 min 0 W/m² 6,4 km/h (2 Bft) 97,83 %
11.02.2026 22:46 8,7 °C 7,2 °C 4,4 °C 95 % 982,3 hPa 0,0 l/m² 0 min 0 min 0 W/m² 3,2 km/h (1 Bft) 97,87 %
11.02.2026 22:48 8,7 °C 7,2 °C 4,4 °C 95 % 982,2 hPa 0,0 l/m² 0 min 0 min 0 W/m² 6,4 km/h (2 Bft) 95,74 %
11.02.2026 22:50 8,7 °C 7,2 °C 4,4 °C 95 % 982,1 hPa 0,0 l/m² 0 min 0 min 0 W/m² 6,4 km/h (2 Bft) 100,00 %
11.02.2026 22:52 8,6 °C 7,2 °C 4,4 °C 95 % 982,1 hPa 0,0 l/m² 0 min 0 min 0 W/m² 12,9 km/h (3 Bft) 97,87 %
11.02.2026 22:54 8,6 °C 7,2 °C 4,4 °C 95 % 982,1 hPa 0,0 l/m² 0 min 0 min 0 W/m² 6,4 km/h (2 Bft) 100,00 %
11.02.2026 22:56 8,6 °C 7,2 °C 4,4 °C 95 % 982,0 hPa 0,0 l/m² 0 min 0 min 0 W/m² 6,4 km/h (2 Bft) 100,00 %
11.02.2026 22:58 8,6 °C 7,2 °C 4,4 °C 95 % 982,0 hPa 0,0 l/m² 0 min 0 min 0 W/m² 9,7 km/h (2 Bft) 97,87 %
11.02.2026 23:00 8,6 °C 7,2 °C 4,4 °C 95 % 981,9 hPa 0,0 l/m² 0 min 0 min 0 W/m² 6,4 km/h (2 Bft) 97,87 %
11.02.2026 23:02 8,6 °C 7,2 °C 4,4 °C 95 % 981,9 hPa 0,0 l/m² 0 min 0 min 0 W/m² 6,4 km/h (2 Bft) 97,87 %
11.02.2026 23:04 8,6 °C 7,2 °C 4,4 °C 95 % 981,9 hPa 0,0 l/m² 0 min 0 min 0 W/m² 6,4 km/h (2 Bft) 100,00 %
11.02.2026 23:06 8,5 °C 7,2 °C 4,4 °C 95 % 981,8 hPa 0,0 l/m² 0 min 0 min 0 W/m² 6,4 km/h (2 Bft) 100,00 %
11.02.2026 23:08 8,5 °C 7,2 °C 3,9 °C 95 % 981,7 hPa 0,0 l/m² 0 min 0 min 0 W/m² 6,4 km/h (2 Bft) 100,00 %
11.02.2026 23:10 8,4 °C 7,2 °C 3,9 °C 95 % 981,7 hPa 0,0 l/m² 0 min 0 min 0 W/m² 6,4 km/h (2 Bft) 100,00 %
11.02.2026 23:12 8,4 °C 7,2 °C 3,9 °C 95 % 981,6 hPa 0,0 l/m² 0 min 0 min 0 W/m² 9,7 km/h (2 Bft) 97,87 %
11.02.2026 23:14 8,4 °C 7,2 °C 4,4 °C 95 % 981,6 hPa 0,0 l/m² 0 min 0 min 0 W/m² 6,4 km/h (2 Bft) 97,87 %
11.02.2026 23:16 8,4 °C 7,2 °C 4,4 °C 95 % 981,6 hPa 0,0 l/m² 0 min 0 min 0 W/m² 6,4 km/h (2 Bft) 100,00 %
11.02.2026 23:18 8,4 °C 7,2 °C 4,4 °C 95 % 981,5 hPa 0,0 l/m² 0 min 0 min 0 W/m² 9,7 km/h (2 Bft) 100,00 %
11.02.2026 23:20 8,4 °C 7,2 °C 4,4 °C 95 % 981,5 hPa 0,0 l/m² 0 min 0 min 0 W/m² 6,4 km/h (2 Bft) 97,87 %
11.02.2026 23:22 8,4 °C 7,2 °C 4,4 °C 95 % 981,4 hPa 0,0 l/m² 0 min 0 min 0 W/m² 12,9 km/h (3 Bft) 97,87 %
11.02.2026 23:24 8,4 °C 7,2 °C 4,4 °C 95 % 981,4 hPa 0,0 l/m² 0 min 0 min 0 W/m² 6,4 km/h (2 Bft) 100,00 %
11.02.2026 23:26 8,4 °C 7,2 °C 4,4 °C 96 % 981,2 hPa 0,0 l/m² 0 min 0 min 0 W/m² 16,1 km/h (3 Bft) 97,87 %
11.02.2026 23:28 8,4 °C 7,2 °C 4,4 °C 96 % 981,1 hPa 0,0 l/m² 0 min 0 min 0 W/m² 6,4 km/h (2 Bft) 97,87 %
11.02.2026 23:30 8,4 °C 7,8 °C 4,4 °C 96 % 981,1 hPa 0,0 l/m² 0 min 0 min 0 W/m² 12,9 km/h (3 Bft) 97,83 %
11.02.2026 23:32 8,4 °C 7,8 °C 4,4 °C 96 % 981,1 hPa 0,0 l/m² 0 min 0 min 0 W/m² 12,9 km/h (3 Bft) 97,87 %
11.02.2026 23:34 8,4 °C 7,8 °C 4,4 °C 96 % 981,0 hPa 0,0 l/m² 0 min 0 min 0 W/m² 12,9 km/h (3 Bft) 97,87 %
11.02.2026 23:36 8,4 °C 7,8 °C 4,4 °C 96 % 980,9 hPa 0,0 l/m² 0 min 0 min 0 W/m² 16,1 km/h (3 Bft) 97,87 %
11.02.2026 23:38 8,4 °C 7,8 °C 4,4 °C 96 % 980,9 hPa 0,0 l/m² 0 min 0 min 0 W/m² 6,4 km/h (2 Bft) 97,87 %
11.02.2026 23:40 8,4 °C 7,8 °C 4,4 °C 96 % 980,8 hPa 0,0 l/m² 0 min 0 min 0 W/m² 6,4 km/h (2 Bft) 97,87 %
11.02.2026 23:42 8,4 °C 7,8 °C 4,4 °C 96 % 980,7 hPa 0,0 l/m² 0 min 0 min 0 W/m² 6,4 km/h (2 Bft) 97,87 %
11.02.2026 23:44 8,4 °C 7,8 °C 4,4 °C 96 % 980,7 hPa 0,0 l/m² 0 min 0 min 0 W/m² 6,4 km/h (2 Bft) 95,74 %
11.02.2026 23:46 8,4 °C 7,8 °C 4,4 °C 96 % 980,6 hPa 0,0 l/m² 0 min 0 min 0 W/m² 6,4 km/h (2 Bft) 95,74 %
11.02.2026 23:48 8,3 °C 7,8 °C 4,4 °C 96 % 980,6 hPa 0,0 l/m² 0 min 0 min 0 W/m² 6,4 km/h (2 Bft) 97,87 %
11.02.2026 23:50 8,3 °C 7,8 °C 4,4 °C 96 % 980,5 hPa 0,0 l/m² 0 min 0 min 0 W/m² 12,9 km/h (3 Bft) 95,74 %
11.02.2026 23:52 8,3 °C 7,8 °C 4,4 °C 96 % 980,5 hPa 0,0 l/m² 0 min 0 min 0 W/m² 16,1 km/h (3 Bft) 97,87 %
11.02.2026 23:54 8,3 °C 7,8 °C 4,4 °C 96 % 980,5 hPa 0,0 l/m² 0 min 0 min 0 W/m² 9,7 km/h (2 Bft) 97,83 %
11.02.2026 23:56 8,3 °C 7,8 °C 4,4 °C 96 % 980,5 hPa 0,0 l/m² 0 min 0 min 0 W/m² 9,7 km/h (2 Bft) 97,87 %
11.02.2026 23:58 8,3 °C 7,8 °C 4,4 °C 96 % 980,4 hPa 0,0 l/m² 0 min 0 min 0 W/m² 6,4 km/h (2 Bft) 100,00 %
_ Min-Zeit 00:00 00:00 00:00 15:36 23:58 - - - - 00:00 06:40
Minimum _ 7,6 °C 6,7 °C 3,3 °C 94 % 980,4 hPa - - - - 0,0 km/h (0 Bft) 55,32 %
_ Max-Zeit 15:02 14:22 14:44 09:08 00:00 00:00 14:42 00:00 14:54 21:42 00:02
Maximum _ 11,7 °C 12,2 °C 7,8 °C 100 % 985,6 hPa 0,2 l/m² 2 min 2 min 196 W/m² 38,6 km/h
S-SW (5 Bft)
100,00 %
Durchschnitt _ 9,3 °C 8,7 °C 5,2 °C 98 % 983,9 hPa #3,8 l/m² #20 min. #1:50 h 63 W/m² 11,0 km/h (2 Bft) 97,29 %
© 2026 W. Hausmann